M I D A S
Marine Information and Data Acquisition System
Tripno 1254 of the Zeeleeuw from 2007-01-08 07:48:13 to 2007-01-08 10:38:09
Back to CruiseResearch ActivitiesStationsMapUnderway DataData graphs

EquipmentUnitsComment
TimeDGPSUTC
LatitudeDGPSDM.mWGS84
LongitudeDGPSDM.mWGS84
TemperatureSBE03/SBE38deg celciusITS90
ConductivitySBE21S/mITS90
SalinitySBE21 Practical Salinity Units
ChlorophylAChelsea fluorimeterg/lCalibrated in Aceton
Missing or incorrect values are displayed as -999
Sea surface data collected by the RV Zeeleeuw from 2007-01-08 07:44:18 to 2007-01-08 10:48:54
                                                                                    Next 1000 lines
Time Latitude Longitude Temperature Conductivity Salinity ChlorophylA
2007-01-08 07:44:28 51°13.599 2°56.095 8.7095 3.138196 27.927208 -2.871232
2007-01-08 07:44:33 51°13.599 2°56.094 8.7097 3.144715 27.996558 -2.871232
2007-01-08 07:44:38 51°13.6 2°56.095 8.7055 3.1502 28.058007 -2.871232
2007-01-08 07:44:44 51°13.6 2°56.095 8.6906 3.1502 28.058007 -2.871232
2007-01-08 07:44:48 51°13.601 2°56.095 8.6854 3.154236 28.102986 -2.871232
2007-01-08 07:44:53 51°13.601 2°56.095 8.6791 3.159514 28.163977 -2.871232
2007-01-08 07:44:58 51°13.6 2°56.094 8.6757 3.163964 28.215353 -2.871232
2007-01-08 07:45:04 51°13.6 2°56.094 8.6752 3.166965 28.251722 -2.871232
2007-01-08 07:45:08 51°13.6 2°56.094 8.672 3.17069 28.292997 -2.871232
2007-01-08 07:45:13 51°13.6 2°56.094 8.6714 3.17069 28.292997 -2.871232
2007-01-08 07:45:18 51°13.6 2°56.094 8.6683 3.178038 28.374587 -2.871232
2007-01-08 07:45:24 51°13.6 2°56.094 8.6542 3.184351 28.442994 -2.871232
2007-01-08 07:45:28 51°13.6 2°56.095 8.6587 3.188387 28.488188 -2.871232
2007-01-08 07:45:33 51°13.6 2°56.095 8.6474 3.1947 28.555916 -2.871232
2007-01-08 07:45:38 51°13.6 2°56.095 8.6472 3.202255 28.635974 -2.871232
2007-01-08 07:45:43 51°13.6 2°56.095 8.6416 3.202255 28.635974 -2.871232
2007-01-08 07:45:48 51°13.599 2°56.094 8.6465 3.204636 28.661817 -2.871232
2007-01-08 07:45:54 51°13.599 2°56.094 8.6524 3.211156 28.732474 -2.871232
2007-01-08 07:45:58 51°13.599 2°56.094 8.6482 3.217366 28.799337 -2.871232
2007-01-08 07:46:03 51°13.599 2°56.094 8.6542 3.222334 28.853167 -2.871232
2007-01-08 07:46:08 51°13.599 2°56.094 8.6518 3.225128 28.883941 -2.871232
2007-01-08 07:46:13 51°13.599 2°56.094 8.6554 3.225128 28.883941 -2.871232
2007-01-08 07:46:18 51°13.599 2°56.094 8.6506 3.227612 28.913193 -2.871232
2007-01-08 07:46:24 51°13.599 2°56.094 8.6483 3.227716 28.915765 -2.871232
2007-01-08 07:46:28 51°13.599 2°56.094 8.655 3.228233 28.920122 -2.871232
2007-01-08 07:46:33 51°13.599 2°56.094 8.6477 3.230096 28.937817 -2.871232
2007-01-08 07:46:38 51°13.599 2°56.095 8.6464 3.232373 28.958844 -2.871232
2007-01-08 07:46:44 51°13.599 2°56.095 8.6342 3.232373 28.958844 -2.871232
2007-01-08 07:46:48 51°13.599 2°56.095 8.6346 3.23227 28.957818 -2.871232
2007-01-08 07:46:53 51°13.6 2°56.095 8.6384 3.236824 29.004522 -2.871232
2007-01-08 07:46:59 51°13.6 2°56.095 8.6433 3.237859 29.017112 -2.871232
2007-01-08 07:47:04 51°13.6 2°56.095 8.6366 3.241689 29.055874 -2.871232
2007-01-08 07:47:08 51°13.6 2°56.095 8.6361 3.244069 29.082599 -2.871232
2007-01-08 07:47:13 51°13.6 2°56.096 8.6284 3.244069 29.082599 -2.871232
2007-01-08 07:47:18 51°13.6 2°56.096 8.6277 3.245311 29.101146 -2.871232
2007-01-08 07:47:24 51°13.599 2°56.095 8.6205 3.231028 28.960209 -2.871232
2007-01-08 07:47:28 51°13.599 2°56.095 8.6255 3.249659 29.146633 -2.871232
2007-01-08 07:47:33 51°13.599 2°56.095 8.6249 3.250487 29.155633 -2.871232
2007-01-08 07:47:38 51°13.599 2°56.094 8.6207 3.251832 29.170553 -2.871232
2007-01-08 07:47:43 51°13.599 2°56.095 8.6267 3.251832 29.170553 -2.871232
2007-01-08 07:47:49 51°13.599 2°56.095 8.6189 3.253592 29.192709 -2.871232
2007-01-08 07:47:53 51°13.599 2°56.095 8.6151 3.255145 29.210473 -2.871232
2007-01-08 07:47:58 51°13.599 2°56.095 8.6053 3.256283 29.223346 -2.871232
2007-01-08 07:48:03 51°13.599 2°56.095 8.6035 3.257422 29.236222 -2.871232
2007-01-08 07:48:08 51°13.599 2°56.094 8.6064 3.25856 29.249881 -2.871232
2007-01-08 07:48:13 51°13.599 2°56.094 8.599 3.25856 29.249881 -2.871232
2007-01-08 07:48:18 51°13.599 2°56.094 8.5992 3.259181 29.256835 -2.871232
2007-01-08 07:48:24 51°13.6 2°56.095 8.6042 3.260424 29.273878 -2.871232
2007-01-08 07:48:28 51°13.6 2°56.095 8.5981 3.262494 29.298375 -2.871232
2007-01-08 07:48:33 51°13.599 2°56.095 8.5999 3.263839 29.315675 -2.871232
2007-01-08 07:48:38 51°13.598 2°56.095 8.5934 3.263736 29.317 -2.871232
2007-01-08 07:48:44 51°13.598 2°56.094 8.5992 3.263736 29.317 -2.871232
2007-01-08 07:48:48 51°13.598 2°56.094 8.5913 3.263529 29.318866 -2.871232
2007-01-08 07:48:53 51°13.598 2°56.094 8.5948 3.261252 29.297788 -2.871232
2007-01-08 07:48:58 51°13.598 2°56.094 8.5897 3.259906 29.283623 -2.871232
2007-01-08 07:49:04 51°13.598 2°56.094 8.5815 3.261562 29.30323 -2.871232
2007-01-08 07:49:08 51°13.597 2°56.094 8.5881 3.26239 29.313036 -2.871232
2007-01-08 07:49:13 51°13.597 2°56.093 8.5915 3.26239 29.313036 -2.871232
2007-01-08 07:49:19 51°13.598 2°56.092 8.6023 3.261976 29.310488 -2.871232
2007-01-08 07:49:24 51°13.598 2°56.091 8.6246 3.263529 29.326718 -2.871232
2007-01-08 07:49:28 51°13.598 2°56.09 8.6734 3.265806 29.351731 -2.871232
2007-01-08 07:49:33 51°13.599 2°56.088 8.7236 3.268187 29.380929 -2.871232
2007-01-08 07:49:38 51°13.6 2°56.086 8.7173 3.268498 29.38402 -2.871232
2007-01-08 07:49:44 51°13.6 2°56.082 8.7353 3.268498 29.38402 -2.871232
2007-01-08 07:49:48 51°13.601 2°56.079 8.7004 3.268084 29.378325 -2.871232
2007-01-08 07:49:54 51°13.602 2°56.075 8.6677 3.258354 29.275238 -2.871232
2007-01-08 07:49:59 51°13.603 2°56.07 8.6565 3.205878 28.733175 -2.871232
2007-01-08 07:50:04 51°13.605 2°56.066 8.6605 3.138094 28.031387 -2.871232
2007-01-08 07:50:09 51°13.606 2°56.06 8.6528 3.0966 27.599969 -2.871232
2007-01-08 07:50:14 51°13.607 2°56.055 8.6416 3.0966 27.599969 -2.871232
2007-01-08 07:50:19 51°13.608 2°56.049 8.6339 3.075079 27.377197 -2.871232
2007-01-08 07:50:24 51°13.61 2°56.043 8.6283 3.087081 27.501118 -2.871232
2007-01-08 07:50:29 51°13.612 2°56.037 8.6021 3.110259 27.74487 -2.871232
2007-01-08 07:50:34 51°13.614 2°56.031 8.5983 3.125987 27.909644 -2.871232
2007-01-08 07:50:39 51°13.616 2°56.025 8.5874 3.138094 28.033634 -2.871232
2007-01-08 07:50:44 51°13.618 2°56.018 8.5909 3.138094 28.033634 -2.871232
2007-01-08 07:50:49 51°13.62 2°56.012 8.5673 3.150512 28.164564 -2.871232
2007-01-08 07:50:54 51°13.623 2°56.005 8.557 3.16055 28.271347 -2.871232
2007-01-08 07:50:59 51°13.625 2°55.998 8.5563 3.168104 28.358206 -2.871232
2007-01-08 07:51:04 51°13.628 2°55.99 8.5491 3.168932 28.377029 -2.871232
2007-01-08 07:51:08 51°13.63 2°55.984 8.5463 3.166552 28.36257 -2.871232
2007-01-08 07:51:14 51°13.633 2°55.975 8.5495 3.166552 28.36257 -2.871232
2007-01-08 07:51:19 51°13.636 2°55.968 8.5401 3.162827 28.33402 -2.871232
2007-01-08 07:51:24 51°13.639 2°55.96 8.5395 3.157963 28.297214 -2.871232
2007-01-08 07:51:29 51°13.642 2°55.953 8.5375 3.154652 28.271984 -2.871232
2007-01-08 07:51:34 51°13.645 2°55.945 8.5338 3.152582 28.257535 -2.871232
2007-01-08 07:51:39 51°13.649 2°55.938 8.5322 3.153203 28.271266 -2.871232
2007-01-08 07:51:44 51°13.652 2°55.931 8.5325 3.153203 28.271266 -2.871232
2007-01-08 07:51:49 51°13.656 2°55.923 8.5316 3.155377 28.296601 -2.871232
2007-01-08 07:51:54 51°13.659 2°55.916 8.5309 3.158171 28.328103 -2.871232
2007-01-08 07:51:59 51°13.662 2°55.909 8.5279 3.166139 28.410191 -2.871232
2007-01-08 07:52:04 51°13.665 2°55.902 8.5275 3.173176 28.48308 -2.871232
2007-01-08 07:52:09 51°13.668 2°55.895 8.5283 3.178868 28.541884 -2.871232
2007-01-08 07:52:14 51°13.672 2°55.888 8.5267 3.178868 28.541884 -2.871232
2007-01-08 07:52:19 51°13.675 2°55.881 8.5276 3.184043 28.594805 -2.871232
2007-01-08 07:52:24 51°13.678 2°55.875 8.5274 3.190045 28.655971 -2.871232
2007-01-08 07:52:29 51°13.681 2°55.868 8.5188 3.194599 28.70276 -2.871232
2007-01-08 07:52:34 51°13.684 2°55.861 8.5194 3.196358 28.722558 -2.871232
2007-01-08 07:52:39 51°13.687 2°55.854 8.5169 3.194599 28.706611 -2.871232
2007-01-08 07:52:44 51°13.69 2°55.846 8.513 3.194599 28.706611 -2.871232
2007-01-08 07:52:48 51°13.693 2°55.84 8.512 3.192218 28.683723 -2.871232
2007-01-08 07:52:54 51°13.696 2°55.832 8.5099 3.190666 28.669064 -2.871232
2007-01-08 07:52:59 51°13.699 2°55.824 8.515 3.1887 28.651829 -2.871232
2007-01-08 07:53:04 51°13.702 2°55.816 8.5134 3.186941 28.637419 -2.871232
2007-01-08 07:53:09 51°13.705 2°55.807 8.5103 3.182387 28.593702 -2.871232
2007-01-08 07:53:14 51°13.708 2°55.799 8.5036 3.182387 28.593702 -2.871232
2007-01-08 07:53:19 51°13.71 2°55.791 8.5002 3.177523 28.547672 -2.871232
2007-01-08 07:53:24 51°13.713 2°55.782 8.4979 3.174418 28.519124 -2.871232
2007-01-08 07:53:29 51°13.716 2°55.774 8.4917 3.171831 28.492657 -2.871232
2007-01-08 07:53:34 51°13.718 2°55.766 8.4857 3.169865 28.474654 -2.871232
2007-01-08 07:53:39 51°13.72 2°55.758 8.4836 3.165208 28.429927 -2.871232
2007-01-08 07:53:44 51°13.722 2°55.751 8.4724 3.165208 28.429927 -2.871232
2007-01-08 07:53:48 51°13.724 2°55.745 8.4645 3.157861 28.360011 -2.871232
2007-01-08 07:53:54 51°13.726 2°55.736 8.4735 3.14772 28.26313 -2.871232
2007-01-08 07:53:59 51°13.727 2°55.73 8.4619 3.140269 28.193728 -2.871232
2007-01-08 07:54:04 51°13.728 2°55.724 8.4578 3.130025 28.096608 -2.871232
2007-01-08 07:54:08 51°13.729 2°55.72 8.4607 3.109537 27.897927 -2.871232
2007-01-08 07:54:13 51°13.73 2°55.716 8.4545 3.109537 27.897927 -2.871232
2007-01-08 07:54:18 51°13.731 2°55.713 8.4538 3.090395 27.714194 -2.871232
2007-01-08 07:54:24 51°13.731 2°55.71 8.441 3.079634 27.611322 -2.871232
2007-01-08 07:54:29 51°13.732 2°55.709 8.4441 3.067218 27.49135 -2.871232
2007-01-08 07:54:33 51°13.732 2°55.709 8.4419 3.058631 27.41078 -2.871232
2007-01-08 07:54:38 51°13.733 2°55.709 8.4384 3.051906 27.347175 -2.871232
2007-01-08 07:54:43 51°13.733 2°55.71 8.4376 3.051906 27.347175 -2.871232
2007-01-08 07:54:48 51°13.734 2°55.712 8.4351 3.042802 27.260772 -2.871232
2007-01-08 07:54:53 51°13.735 2°55.715 8.4321 3.035043 27.189148 -2.871232
2007-01-08 07:54:58 51°13.736 2°55.717 8.4307 3.025422 27.098383 -2.871232
2007-01-08 07:55:03 51°13.737 2°55.72 8.4397 3.016318 27.00984 -2.871232
2007-01-08 07:55:08 51°13.738 2°55.722 8.4344 3.010318 26.953443 -2.871232
2007-01-08 07:55:13 51°13.738 2°55.724 8.4316 3.010318 26.953443 -2.871232
2007-01-08 07:55:18 51°13.739 2°55.725 8.4322 3.006076 26.913704 -2.871232
2007-01-08 07:55:23 51°13.74 2°55.726 8.4284 3.002352 26.879078 -2.871232
2007-01-08 07:55:28 51°13.74 2°55.727 8.4308 3.000076 26.858761 -2.871232
2007-01-08 07:55:34 51°13.741 2°55.727 8.4285 2.999352 26.851606 -2.871232
2007-01-08 07:55:38 51°13.741 2°55.727 8.4269 2.998835 26.847219 -2.871232
2007-01-08 07:55:43 51°13.74 2°55.726 8.423 2.998835 26.847219 -2.871232
2007-01-08 07:55:48 51°13.739 2°55.725 8.4239 2.996663 26.825757 -2.871232
2007-01-08 07:55:53 51°13.738 2°55.724 8.417 2.993249 26.792758 -2.871232
2007-01-08 07:55:58 51°13.737 2°55.722 8.4146 2.989835 26.761202 -2.871232
2007-01-08 07:56:04 51°13.735 2°55.72 8.4088 2.986835 26.733014 -2.871232
2007-01-08 07:56:09 51°13.734 2°55.718 8.4156 2.983939 26.705848 -2.871232
2007-01-08 07:56:14 51°13.732 2°55.717 8.4142 2.983939 26.705848 -2.871232
2007-01-08 07:56:19 51°13.731 2°55.715 8.417 2.981456 26.68277 -2.871232
2007-01-08 07:56:24 51°13.73 2°55.714 8.4233 2.976491 26.63518 -2.871232
2007-01-08 07:56:29 51°13.729 2°55.713 8.4253 2.95994 26.476122 -2.871232
2007-01-08 07:56:34 51°13.728 2°55.712 8.4298 2.947114 26.351738 -2.871232
2007-01-08 07:56:38 51°13.728 2°55.712 8.4304 2.947735 26.359986 -2.871232
2007-01-08 07:56:44 51°13.728 2°55.712 8.4304 2.947735 26.359986 -2.871232
2007-01-08 07:56:49 51°13.729 2°55.712 8.4254 2.960768 26.487852 -2.871232
2007-01-08 07:56:53 51°13.73 2°55.713 8.4185 2.973698 26.614054 -2.871232
2007-01-08 07:56:58 51°13.732 2°55.713 8.4113 2.991801 26.789985 -2.871232
2007-01-08 07:57:04 51°13.734 2°55.714 8.4019 3.006387 26.931984 -2.871232
2007-01-08 07:57:09 51°13.737 2°55.713 8.3892 3.015801 27.022897 -2.871232
2007-01-08 07:57:13 51°13.739 2°55.713 8.3843 3.015801 27.022897 -2.871232
2007-01-08 07:57:18 51°13.743 2°55.712 8.3781 3.017559 27.039564 -2.871232
2007-01-08 07:57:23 51°13.746 2°55.71 8.3744 3.011973 26.986496 -2.871232
2007-01-08 07:57:28 51°13.749 2°55.707 8.3716 3.000594 26.878333 -2.871232
2007-01-08 07:57:33 51°13.754 2°55.704 8.369 2.983008 26.710311 -2.871232
2007-01-08 07:57:38 51°13.758 2°55.7 8.3661 2.952079 26.41279 -2.871232
2007-01-08 07:57:44 51°13.764 2°55.695 8.3602 2.952079 26.41279 -2.871232
2007-01-08 07:57:48 51°13.768 2°55.691 8.3573 2.935323 26.25386 -2.871232
2007-01-08 07:57:53 51°13.773 2°55.686 8.3496 2.906052 25.972359 -2.871232
2007-01-08 07:57:58 51°13.778 2°55.681 8.3483 2.887643 25.79593 -2.871232
2007-01-08 07:58:03 51°13.783 2°55.676 8.3488 2.870165 25.627376 -2.871232
2007-01-08 07:58:08 51°13.789 2°55.671 8.3347 2.852584 25.457907 -2.871232
2007-01-08 07:58:13 51°13.795 2°55.665 8.3264 2.852584 25.457907 -2.871232
2007-01-08 07:58:18 51°13.801 2°55.659 8.3325 2.835108 25.289559 -2.871232
2007-01-08 07:58:24 51°13.809 2°55.652 8.3415 2.815564 25.101011 -2.871232
2007-01-08 07:58:28 51°13.815 2°55.647 8.3436 2.787128 24.825388 -2.871232
2007-01-08 07:58:33 51°13.822 2°55.641 8.3437 2.750939 24.474162 -2.871232
2007-01-08 07:58:38 51°13.83 2°55.635 8.3491 2.717649 24.153733 -2.871232
2007-01-08 07:58:44 51°13.839 2°55.628 8.3549 2.717649 24.153733 -2.871232
2007-01-08 07:58:48 51°13.846 2°55.623 8.3561 2.698316 23.969354 -2.871232
2007-01-08 07:58:53 51°13.854 2°55.617 8.3678 2.703485 24.020502 -2.871232
2007-01-08 07:58:58 51°13.862 2°55.611 8.3739 2.713513 24.117212 -2.871232
2007-01-08 07:59:03 51°13.87 2°55.605 8.3747 2.724989 24.22681 -2.871232
2007-01-08 07:59:09 51°13.881 2°55.598 8.3812 2.743392 24.404236 -2.871232
2007-01-08 07:59:13 51°13.888 2°55.592 8.3878 2.743392 24.404236 -2.871232
2007-01-08 07:59:18 51°13.896 2°55.586 8.3955 2.764897 24.612177 -2.871232
2007-01-08 07:59:23 51°13.905 2°55.58 8.4075 2.781958 24.77537 -2.871232
2007-01-08 07:59:29 51°13.915 2°55.572 8.418 2.806981 25.016097 -2.871232
2007-01-08 07:59:34 51°13.924 2°55.566 8.4248 2.829937 25.237406 -2.871232
2007-01-08 07:59:38 51°13.931 2°55.561 8.4302 2.851033 25.4406 -2.871232
2007-01-08 07:59:43 51°13.94 2°55.555 8.4355 2.851033 25.4406 -2.871232
2007-01-08 07:59:48 51°13.949 2°55.549 8.4396 2.878542 25.706346 -2.871232
2007-01-08 07:59:53 51°13.958 2°55.543 8.4421 2.911948 26.029046 -2.871232
2007-01-08 07:59:58 51°13.967 2°55.537 8.4456 2.960251 26.497013 -2.871232
2007-01-08 08:00:03 51°13.976 2°55.531 8.4467 2.997594 26.858801 -2.871232
2007-01-08 08:00:08 51°13.985 2°55.524 8.4477 3.022215 27.095094 -2.871232
2007-01-08 08:00:13 51°13.994 2°55.518 8.4479 3.022215 27.095094 -2.871232
2007-01-08 08:00:18 51°14.003 2°55.512 8.4496 3.043527 27.300966 -2.871232
2007-01-08 08:00:24 51°14.015 2°55.504 8.4516 3.061115 27.4708 -2.871232
2007-01-08 08:00:28 51°14.022 2°55.499 8.4533 3.075703 27.611715 -2.871232
2007-01-08 08:00:33 51°14.031 2°55.493 8.4538 3.083463 27.685697 -2.871232
2007-01-08 08:00:39 51°14.042 2°55.485 8.453 3.087291 27.72218 -2.871232
2007-01-08 08:00:44 51°14.051 2°55.479 8.4521 3.087291 27.72218 -2.871232
2007-01-08 08:00:48 51°14.058 2°55.474 8.4521 3.089257 27.739443 -2.871232
2007-01-08 08:00:53 51°14.067 2°55.468 8.4495 3.090809 27.754093 -2.871232
2007-01-08 08:00:58 51°14.076 2°55.461 8.4486 3.093085 27.775181 -2.871232
2007-01-08 08:01:04 51°14.086 2°55.453 8.4476 3.095672 27.79935 -2.871232
2007-01-08 08:01:08 51°14.094 2°55.448 8.442 3.095982 27.801681 -2.871232
2007-01-08 08:01:13 51°14.103 2°55.442 8.439 3.095982 27.801681 -2.871232
2007-01-08 08:01:18 51°14.112 2°55.435 8.4317 3.091947 27.762396 -2.871232
2007-01-08 08:01:24 51°14.122 2°55.427 8.4289 3.08667 27.710802 -2.871232
2007-01-08 08:01:28 51°14.129 2°55.421 8.424 3.083566 27.680764 -2.871232
2007-01-08 08:01:33 51°14.138 2°55.414 8.4211 3.076944 27.615852 -2.871232
2007-01-08 08:01:38 51°14.146 2°55.407 8.4189 3.066391 27.513474 -2.871232
2007-01-08 08:01:43 51°14.155 2°55.399 8.4214 3.066391 27.513474 -2.871232
2007-01-08 08:01:49 51°14.165 2°55.389 8.4168 3.052941 27.383176 -2.871232
2007-01-08 08:01:53 51°14.172 2°55.383 8.4167 3.032664 27.186815 -2.871232
2007-01-08 08:01:58 51°14.18 2°55.374 8.4143 3.014042 27.006231 -2.871232
2007-01-08 08:02:03 51°14.188 2°55.365 8.4117 2.999352 26.864616 -2.871232
2007-01-08 08:02:08 51°14.197 2°55.355 8.4117 2.992939 26.803394 -2.871232
2007-01-08 08:02:14 51°14.207 2°55.343 8.4113 2.992939 26.803394 -2.871232
2007-01-08 08:02:19 51°14.216 2°55.333 8.4056 2.988697 26.763646 -2.871232
2007-01-08 08:02:24 51°14.224 2°55.322 8.4025 2.984353 26.722158 -2.871232
2007-01-08 08:02:28 51°14.231 2°55.312 8.3997 2.980008 26.680676 -2.871232
2007-01-08 08:02:34 51°14.241 2°55.297 8.4015 2.970181 26.585772 -2.871232
2007-01-08 08:02:39 51°14.249 2°55.284 8.3971 2.96294 26.515713 -2.871232
2007-01-08 08:02:44 51°14.257 2°55.27 8.3956 2.96294 26.515713 -2.871232
2007-01-08 08:02:48 51°14.264 2°55.258 8.3903 2.954148 26.430359 -2.871232
2007-01-08 08:02:54 51°14.274 2°55.24 8.3901 2.93884 26.282885 -2.871232
2007-01-08 08:02:59 51°14.282 2°55.225 8.3914 2.924256 26.141917 -2.871232
2007-01-08 08:03:04 51°14.29 2°55.21 8.3945 2.910189 26.004715 -2.871232
2007-01-08 08:03:08 51°14.297 2°55.197 8.3959 2.894365 25.850286 -2.871232
2007-01-08 08:03:13 51°14.305 2°55.182 8.3998 2.894365 25.850286 -2.871232
2007-01-08 08:03:18 51°14.313 2°55.166 8.4019 2.875439 25.666134 -2.871232
2007-01-08 08:03:24 51°14.323 2°55.147 8.4042 2.860857 25.525506 -2.871232
2007-01-08 08:03:28 51°14.33 2°55.134 8.4064 2.85155 25.435402 -2.871232
2007-01-08 08:03:33 51°14.338 2°55.117 8.4131 2.847 25.39001 -2.871232
2007-01-08 08:03:38 51°14.346 2°55.1 8.416 2.847 25.389327 -2.871232
2007-01-08 08:03:43 51°14.355 2°55.083 8.4192 2.847 25.389327 -2.871232
2007-01-08 08:03:49 51°14.365 2°55.062 8.4221 2.852584 25.442138 -2.871232
2007-01-08 08:03:53 51°14.371 2°55.048 8.425 2.869648 25.607798 -2.871232
2007-01-08 08:03:58 51°14.379 2°55.03 8.4289 2.888367 25.789856 -2.871232
2007-01-08 08:04:03 51°14.387 2°55.011 8.4342 2.905432 25.954359 -2.871232
2007-01-08 08:04:09 51°14.396 2°54.987 8.4418 2.924566 26.140048 -2.871232
2007-01-08 08:04:14 51°14.402 2°54.967 8.4463 2.924566 26.140048 -2.871232
2007-01-08 08:04:18 51°14.406 2°54.95 8.4526 2.941115 26.300371 -2.871232
2007-01-08 08:04:23 51°14.411 2°54.928 8.4561 2.957458 26.458751 -2.871232
2007-01-08 08:04:28 51°14.416 2°54.906 8.4619 2.971319 26.592712 -2.871232
2007-01-08 08:04:34 51°14.421 2°54.879 8.4661 3.000801 26.881102 -2.871232
2007-01-08 08:04:38 51°14.424 2°54.86 8.4694 3.029353 27.159169 -2.871232
2007-01-08 08:04:44 51°14.427 2°54.833 8.4735 3.029353 27.159169 -2.871232
2007-01-08 08:04:48 51°14.429 2°54.814 8.4784 3.059977 27.458043 -2.871232
2007-01-08 08:04:53 51°14.431 2°54.79 8.4813 3.091326 27.763707 -2.871232
2007-01-08 08:04:58 51°14.432 2°54.766 8.4869 3.114711 27.990586 -2.871232
2007-01-08 08:05:04 51°14.432 2°54.737 8.4943 3.134889 28.185756 -2.871232
2007-01-08 08:05:08 51°14.432 2°54.717 8.5006 3.158689 28.417836 -2.871232
2007-01-08 08:05:13 51°14.432 2°54.692 8.506 3.158689 28.417836 -2.871232
2007-01-08 08:05:18 51°14.432 2°54.666 8.5161 3.178145 28.607607 -2.871232
2007-01-08 08:05:24 51°14.433 2°54.634 8.5233 3.197497 28.796475 -2.871232
2007-01-08 08:05:28 51°14.432 2°54.613 8.5315 3.219231 29.008424 -2.871232
2007-01-08 08:05:33 51°14.43 2°54.585 8.5422 3.238689 29.197806 -2.871232
2007-01-08 08:05:38 51°14.427 2°54.558 8.5542 3.260839 29.411017 -2.871232
2007-01-08 08:05:44 51°14.421 2°54.525 8.5559 3.260839 29.411017 -2.871232
2007-01-08 08:05:48 51°14.418 2°54.503 8.5594 3.27502 29.546303 -2.871232
2007-01-08 08:05:53 51°14.412 2°54.475 8.5635 3.289408 29.683694 -2.871232
2007-01-08 08:05:58 51°14.406 2°54.447 8.5662 3.310422 29.885765 -2.871232
2007-01-08 08:06:03 51°14.4 2°54.42 8.5676 3.337545 30.149066 -2.871232
2007-01-08 08:06:09 51°14.39 2°54.388 8.5698 3.359596 30.359303 -2.871232
2007-01-08 08:06:13 51°14.383 2°54.368 8.5722 3.359596 30.359303 -2.871232
2007-01-08 08:06:18 51°14.373 2°54.343 8.575 3.368914 30.445291 -2.871232
2007-01-08 08:06:23 51°14.364 2°54.317 8.5829 3.380406 30.555526 -2.871232
2007-01-08 08:06:29 51°14.353 2°54.286 8.584 3.391691 30.663712 -2.871232
2007-01-08 08:06:34 51°14.345 2°54.259 8.5938 3.401838 30.762152 -2.871232
2007-01-08 08:06:38 51°14.338 2°54.239 8.5983 3.409811 30.838807 -2.871232
2007-01-08 08:06:44 51°14.327 2°54.207 8.6065 3.409811 30.838807 -2.871232
2007-01-08 08:06:48 51°14.32 2°54.186 8.607 3.411882 30.856267 -2.871232
2007-01-08 08:06:53 51°14.311 2°54.159 8.6083 3.412917 30.861683 -2.871232
2007-01-08 08:06:58 51°14.302 2°54.133 8.6054 3.415298 30.880597 -2.871232
2007-01-08 08:07:04 51°14.291 2°54.101 8.6057 3.422236 30.945201 -2.871232
2007-01-08 08:07:08 51°14.284 2°54.079 8.6079 3.434765 31.065073 -2.871232
2007-01-08 08:07:13 51°14.275 2°54.053 8.6126 3.434765 31.065073 -2.871232
2007-01-08 08:07:18 51°14.266 2°54.026 8.6113 3.44543 31.166265 -2.871232
2007-01-08 08:07:24 51°14.256 2°53.994 8.6179 3.456303 31.271228 -2.871232
2007-01-08 08:07:28 51°14.248 2°53.972 8.6315 3.464588 31.351899 -2.871232
2007-01-08 08:07:33 51°14.24 2°53.945 8.6432 3.469558 31.401826 -2.871232
2007-01-08 08:07:39 51°14.229 2°53.913 8.6551 3.470283 31.407424 -2.871232
2007-01-08 08:07:44 51°14.22 2°53.886 8.6674 3.470283 31.407424 -2.871232
2007-01-08 08:07:48 51°14.213 2°53.865 8.681 3.471629 31.420105 -2.871232
2007-01-08 08:07:53 51°14.204 2°53.838 8.6833 3.474322 31.444624 -2.871232
2007-01-08 08:07:58 51°14.195 2°53.811 8.6852 3.477428 31.46993 -2.871232
2007-01-08 08:08:03 51°14.186 2°53.784 8.6908 3.481778 31.50518 -2.871232
2007-01-08 08:08:09 51°14.175 2°53.752 8.7094 3.488509 31.560962 -2.871232
2007-01-08 08:08:13 51°14.168 2°53.73 8.6994 3.488509 31.560962 -2.871232
2007-01-08 08:08:18 51°14.159 2°53.703 8.7049 3.492341 31.585911 -2.871232
2007-01-08 08:08:23 51°14.15 2°53.676 8.7096 3.496586 31.616697 -2.871232
2007-01-08 08:08:29 51°14.139 2°53.643 8.7152 3.501557 31.659827 -2.871232
2007-01-08 08:08:34 51°14.13 2°53.616 8.7184 3.506528 31.701254 -2.871232
2007-01-08 08:08:38 51°14.123 2°53.595 8.7188 3.510257 31.731044 -2.871232
2007-01-08 08:08:43 51°14.114 2°53.568 8.7161 3.510257 31.731044 -2.871232
2007-01-08 08:08:48 51°14.105 2°53.54 8.7097 3.513364 31.757136 -2.871232
2007-01-08 08:08:53 51°14.096 2°53.513 8.7108 3.51471 31.766403 -2.871232
2007-01-08 08:08:58 51°14.087 2°53.486 8.7203 3.515435 31.768582 -2.871232
2007-01-08 08:09:04 51°14.076 2°53.453 8.7227 3.51761 31.78786 -2.871232
2007-01-08 08:09:08 51°14.068 2°53.432 8.7172 3.518645 31.794853 -2.871232
2007-01-08 08:09:13 51°14.058 2°53.405 8.7257 3.518645 31.794853 -2.871232
2007-01-08 08:09:18 51°14.048 2°53.379 8.7199 3.519681 31.803546 -2.871232
2007-01-08 08:09:23 51°14.037 2°53.353 8.7198 3.522788 31.835579 -2.871232
2007-01-08 08:09:28 51°14.027 2°53.327 8.725 3.524031 31.848053 -2.871232
2007-01-08 08:09:33 51°14.016 2°53.3 8.7236 3.524031 31.845499 -2.871232
2007-01-08 08:09:38 51°14.007 2°53.274 8.7253 3.524756 31.852775 -2.871232
2007-01-08 08:09:44 51°13.994 2°53.243 8.7313 3.524756 31.852775 -2.871232
2007-01-08 08:09:48 51°13.986 2°53.221 8.7259 3.524652 31.850033 -2.871232
2007-01-08 08:09:53 51°13.976 2°53.195 8.7293 3.525481 31.858349 -2.871232
2007-01-08 08:09:58 51°13.965 2°53.169 8.736 3.526206 31.863922 -2.871232
2007-01-08 08:10:04 51°13.953 2°53.138 8.7323 3.526516 31.865337 -2.871232
2007-01-08 08:10:08 51°13.945 2°53.116 8.7357 3.527034 31.869682 -2.871232
2007-01-08 08:10:13 51°13.935 2°53.09 8.7358 3.527034 31.869682 -2.871232
2007-01-08 08:10:18 51°13.925 2°53.063 8.7458 3.527759 31.874402 -2.871232
2007-01-08 08:10:23 51°13.915 2°53.036 8.7357 3.528898 31.886688 -2.871232
2007-01-08 08:10:29 51°13.903 2°53.004 8.7396 3.528381 31.878083 -2.871232
2007-01-08 08:10:33 51°13.895 2°52.983 8.7421 3.529313 31.884881 -2.871232
2007-01-08 08:10:38 51°13.884 2°52.957 8.7424 3.530141 31.890638 -2.871232
2007-01-08 08:10:43 51°13.874 2°52.931 8.7415 3.530141 31.890638 -2.871232
2007-01-08 08:10:48 51°13.864 2°52.904 8.7411 3.53097 31.897248 -2.871232
2007-01-08 08:10:53 51°13.853 2°52.877 8.7504 3.531695 31.902818 -2.871232
2007-01-08 08:10:58 51°13.844 2°52.851 8.7512 3.53242 31.90924 -2.871232
2007-01-08 08:11:04 51°13.831 2°52.819 8.7533 3.532316 31.906496 -2.871232
2007-01-08 08:11:09 51°13.821 2°52.792 8.7588 3.533248 31.914996 -2.871232
2007-01-08 08:11:13 51°13.813 2°52.771 8.7481 3.533248 31.914996 -2.871232
2007-01-08 08:11:18 51°13.803 2°52.744 8.7505 3.53387 31.921231 -2.871232
2007-01-08 08:11:23 51°13.793 2°52.718 8.7493 3.533662 31.9183 -2.871232
2007-01-08 08:11:28 51°13.783 2°52.691 8.7471 3.533559 31.913851 -2.871232
2007-01-08 08:11:33 51°13.773 2°52.664 8.748 3.533559 31.912146 -2.871232
2007-01-08 08:11:38 51°13.763 2°52.637 8.7498 3.532937 31.903356 -2.871232
2007-01-08 08:11:44 51°13.751 2°52.605 8.7575 3.532937 31.903356 -2.871232
2007-01-08 08:11:48 51°13.742 2°52.584 8.7529 3.533766 31.912519 -2.871232
2007-01-08 08:11:53 51°13.732 2°52.558 8.7553 3.534077 31.916489 -2.871232
2007-01-08 08:11:59 51°13.719 2°52.526 8.7557 3.534802 31.924614 -2.871232
2007-01-08 08:12:04 51°13.709 2°52.499 8.7553 3.535216 31.92877 -2.871232
2007-01-08 08:12:08 51°13.701 2°52.478 8.7562 3.535009 31.925839 -2.871232
2007-01-08 08:12:13 51°13.691 2°52.452 8.7553 3.535009 31.925839 -2.871232
2007-01-08 08:12:18 51°13.681 2°52.425 8.7611 3.534491 31.917235 -2.871232
2007-01-08 08:12:24 51°13.668 2°52.394 8.7731 3.535112 31.922616 -2.871232
2007-01-08 08:12:29 51°13.658 2°52.367 8.7705 3.535837 31.929888 -2.871232
2007-01-08 08:12:33 51°13.65 2°52.346 8.7693 3.536355 31.93423 -2.871232
2007-01-08 08:12:38 51°13.64 2°52.319 8.7731 3.536977 31.93961 -2.871232
2007-01-08 08:12:44 51°13.627 2°52.287 8.768 3.536977 31.93961 -2.871232
2007-01-08 08:12:49 51°13.617 2°52.26 8.7683 3.537494 31.943099 -2.871232
2007-01-08 08:12:53 51°13.609 2°52.239 8.7728 3.537702 31.941766 -2.871232
2007-01-08 08:12:58 51°13.599 2°52.213 8.7742 3.537805 31.940246 -2.871232
2007-01-08 08:13:03 51°13.588 2°52.186 8.7782 3.538323 31.942882 -2.871232
2007-01-08 08:13:08 51°13.578 2°52.16 8.7688 3.53853 31.943254 -2.871232
2007-01-08 08:13:13 51°13.568 2°52.133 8.7788 3.53853 31.943254 -2.871232
2007-01-08 08:13:18 51°13.558 2°52.106 8.7818 3.539359 31.952415 -2.871232
2007-01-08 08:13:23 51°13.548 2°52.08 8.7844 3.539462 31.952601 -2.871232
2007-01-08 08:13:28 51°13.538 2°52.053 8.7886 3.539048 31.946741 -2.871232
2007-01-08 08:13:33 51°13.528 2°52.026 8.7795 3.538841 31.942107 -2.871232
2007-01-08 08:13:38 51°13.518 2°52 8.7744 3.539462 31.94919 -2.871232
2007-01-08 08:13:43 51°13.508 2°51.973 8.7769 3.539462 31.94919 -2.871232
2007-01-08 08:13:48 51°13.498 2°51.946 8.7782 3.539048 31.943331 -2.871232
2007-01-08 08:13:53 51°13.488 2°51.92 8.7757 3.539048 31.939069 -2.871232
2007-01-08 08:13:58 51°13.478 2°51.893 8.7799 3.538944 31.935475 -2.871232
2007-01-08 08:14:04 51°13.466 2°51.861 8.7795 3.539462 31.941518 -2.871232
2007-01-08 08:14:08 51°13.459 2°51.84 8.7776 3.53998 31.948414 -2.871232
2007-01-08 08:14:13 51°13.449 2°51.813 8.7775 3.53998 31.948414 -2.871232
2007-01-08 08:14:18 51°13.439 2°51.786 8.7788 3.539876 31.947376 -2.871232
2007-01-08 08:14:24 51°13.427 2°51.754 8.7791 3.540187 31.950491 -2.871232
2007-01-08 08:14:28 51°13.419 2°51.733 8.7743 3.540187 31.951343 -2.871232
2007-01-08 08:14:33 51°13.409 2°51.706 8.7807 3.539669 31.945299 -2.871232
2007-01-08 08:14:38 51°13.399 2°51.68 8.7803 3.539566 31.945113 -2.871232
2007-01-08 08:14:44 51°13.387 2°51.648 8.7858 3.539566 31.945113 -2.871232
2007-01-08 08:14:49 51°13.377 2°51.621 8.783 3.539566 31.945113 -2.871232
2007-01-08 08:14:53 51°13.369 2°51.6 8.777 3.539358 31.941332 -2.871232
2007-01-08 08:14:58 51°13.359 2°51.573 8.7826 3.539462 31.944075 -2.871232
2007-01-08 08:15:03 51°13.348 2°51.547 8.7729 3.538841 31.936993 -2.871232
2007-01-08 08:15:08 51°13.339 2°51.52 8.7733 3.538841 31.936993 -2.871232
2007-01-08 08:15:13 51°13.329 2°51.494 8.7737 3.538841 31.936993 -2.871232
2007-01-08 08:15:18 51°13.319 2°51.467 8.7819 3.538323 31.930097 -2.871232
2007-01-08 08:15:23 51°13.309 2°51.44 8.7756 3.538116 31.928021 -2.871232
2007-01-08 08:15:29 51°13.297 2°51.408 8.7787 3.537908 31.926796 -2.871232
2007-01-08 08:15:33 51°13.289 2°51.387 8.7773 3.537805 31.92661 -2.871232
2007-01-08 08:15:38 51°13.279 2°51.36 8.7788 3.537598 31.926237 -2.871232
2007-01-08 08:15:43 51°13.269 2°51.333 8.7757 3.537598 31.926237 -2.871232
2007-01-08 08:15:48 51°13.259 2°51.307 8.7749 3.537287 31.923974 -2.871232
2007-01-08 08:15:54 51°13.246 2°51.275 8.7725 3.536873 31.918969 -2.871232
2007-01-08 08:15:58 51°13.238 2°51.254 8.7749 3.536562 31.915003 -2.871232
2007-01-08 08:16:04 51°13.226 2°51.222 8.7778 3.536355 31.912927 -2.871232
2007-01-08 08:16:08 51°13.218 2°51.201 8.7773 3.536044 31.909812 -2.871232
2007-01-08 08:16:13 51°13.208 2°51.174 8.7784 3.536044 31.909812 -2.871232
2007-01-08 08:16:19 51°13.196 2°51.142 8.7802 3.535941 31.908774 -2.871232
2007-01-08 08:16:24 51°13.186 2°51.116 8.7759 3.535733 31.9084 -2.871232
2007-01-08 08:16:28 51°13.177 2°51.094 8.7769 3.53563 31.906511 -2.871232
2007-01-08 08:16:33 51°13.168 2°51.067 8.7771 3.535526 31.905473 -2.871232
2007-01-08 08:16:38 51°13.157 2°51.041 8.78 3.535008 31.900282 -2.871232
2007-01-08 08:16:44 51°13.145 2°51.008 8.7791 3.535008 31.900282 -2.871232
2007-01-08 08:16:49 51°13.135 2°50.982 8.779 3.534801 31.897354 -2.871232
2007-01-08 08:16:53 51°13.127 2°50.96 8.7784 3.534594 31.894427 -2.871232
2007-01-08 08:16:58 51°13.117 2°50.933 8.7839 3.534283 31.892164 -2.871232
2007-01-08 08:17:04 51°13.105 2°50.901 8.7848 3.534076 31.890088 -2.871232
2007-01-08 08:17:08 51°13.097 2°50.88 8.7788 3.533766 31.886122 -2.871232
2007-01-08 08:17:13 51°13.087 2°50.852 8.7811 3.533766 31.886122 -2.871232
2007-01-08 08:17:18 51°13.077 2°50.826 8.7847 3.533455 31.882158 -2.871232
2007-01-08 08:17:24 51°13.065 2°50.793 8.7861 3.533248 31.880082 -2.871232
2007-01-08 08:17:28 51°13.056 2°50.772 8.7856 3.533248 31.879231 -2.871232
2007-01-08 08:17:33 51°13.046 2°50.745 8.787 3.533144 31.877343 -2.871232
2007-01-08 08:17:38 51°13.037 2°50.718 8.7935 3.533455 31.880456 -2.871232
2007-01-08 08:17:43 51°13.027 2°50.691 8.7859 3.533455 31.880456 -2.871232
2007-01-08 08:17:49 51°13.015 2°50.658 8.7881 3.533455 31.879606 -2.871232
2007-01-08 08:17:53 51°13.007 2°50.636 8.7883 3.533455 31.877905 -2.871232
2007-01-08 08:17:58 51°12.998 2°50.609 8.7901 3.533869 31.881206 -2.871232
2007-01-08 08:18:03 51°12.988 2°50.581 8.7932 3.53418 31.882618 -2.871232
2007-01-08 08:18:08 51°12.979 2°50.553 8.7923 3.534594 31.885069 -2.871232
2007-01-08 08:18:14 51°12.967 2°50.521 8.794 3.534594 31.885069 -2.871232
2007-01-08 08:18:18 51°12.959 2°50.499 8.7986 3.534905 31.888182 -2.871232
2007-01-08 08:18:24 51°12.948 2°50.466 8.7931 3.535215 31.892146 -2.871232
2007-01-08 08:18:28 51°12.94 2°50.443 8.7943 3.535319 31.892333 -2.871232
2007-01-08 08:18:33 51°12.931 2°50.416 8.7946 3.535423 31.89167 -2.871232
2007-01-08 08:18:38 51°12.921 2°50.389 8.7982 3.53563 31.892894 -2.871232
2007-01-08 08:18:44 51°12.909 2°50.356 8.7928 3.53563 31.892894 -2.871232
2007-01-08 08:18:48 51°12.902 2°50.334 8.7954 3.53594 31.894306 -2.871232
2007-01-08 08:18:53 51°12.893 2°50.307 8.798 3.536044 31.894493 -2.871232
2007-01-08 08:18:58 51°12.883 2°50.279 8.7946 3.536665 31.90072 -2.871232
2007-01-08 08:19:04 51°12.872 2°50.246 8.7951 3.537183 31.905908 -2.871232
2007-01-08 08:19:08 51°12.864 2°50.224 8.7965 3.537287 31.905244 -2.871232
2007-01-08 08:19:13 51°12.854 2°50.197 8.8001 3.537287 31.905244 -2.871232
2007-01-08 08:19:18 51°12.845 2°50.169 8.7979 3.537805 31.910433 -2.871232
2007-01-08 08:19:24 51°12.833 2°50.136 8.7959 3.538115 31.912695 -2.871232
2007-01-08 08:19:28 51°12.826 2°50.114 8.8009 3.53853 31.917697 -2.871232
2007-01-08 08:19:33 51°12.816 2°50.087 8.7989 3.538944 31.922699 -2.871232
2007-01-08 08:19:38 51°12.807 2°50.06 8.8048 3.539048 31.923737 -2.871232
2007-01-08 08:19:43 51°12.798 2°50.032 8.8034 3.539048 31.923737 -2.871232
2007-01-08 08:19:49 51°12.786 2°49.999 8.8023 3.539255 31.92411 -2.871232
2007-01-08 08:19:53 51°12.778 2°49.977 8.8084 3.539565 31.927223 -2.871232
2007-01-08 08:19:58 51°12.769 2°49.95 8.8071 3.539876 31.929485 -2.871232
2007-01-08 08:20:03 51°12.759 2°49.922 8.8044 3.540187 31.931746 -2.871232
2007-01-08 08:20:08 51°12.75 2°49.894 8.8099 3.540497 31.933157 -2.871232
2007-01-08 08:20:14 51°12.739 2°49.861 8.8059 3.540497 31.933157 -2.871232
2007-01-08 08:20:18 51°12.731 2°49.839 8.8093 3.540912 31.937307 -2.871232
2007-01-08 08:20:24 51°12.72 2°49.806 8.8134 3.54143 31.941644 -2.871232
2007-01-08 08:20:28 51°12.712 2°49.784 8.8135 3.541533 31.940979 -2.871232
2007-01-08 08:20:34 51°12.701 2°49.751 8.8167 3.541947 31.944278 -2.871232
2007-01-08 08:20:38 51°12.694 2°49.728 8.8204 3.542258 31.946539 -2.871232
2007-01-08 08:20:44 51°12.682 2°49.695 8.8215 3.542258 31.946539 -2.871232
2007-01-08 08:20:48 51°12.675 2°49.673 8.8249 3.542776 31.950875 -2.871232
2007-01-08 08:20:53 51°12.665 2°49.645 8.8239 3.54319 31.953322 -2.871232
2007-01-08 08:20:58 51°12.656 2°49.617 8.8255 3.543915 31.958029 -2.871232
2007-01-08 08:21:04 51°12.644 2°49.584 8.8259 3.544537 31.962551 -2.871232
2007-01-08 08:21:08 51°12.637 2°49.562 8.8287 3.545055 31.965182 -2.871232
2007-01-08 08:21:13 51°12.627 2°49.534 8.8304 3.545055 31.965182 -2.871232
2007-01-08 08:21:19 51°12.616 2°49.501 8.8323 3.545572 31.967813 -2.871232
2007-01-08 08:21:24 51°12.607 2°49.473 8.8337 3.546297 31.972519 -2.871232
2007-01-08 08:21:28 51°12.599 2°49.451 8.834 3.546815 31.976854 -2.871232
2007-01-08 08:21:33 51°12.589 2°49.424 8.8353 3.547229 31.979299 -2.871232
2007-01-08 08:21:38 51°12.58 2°49.397 8.8341 3.54754 31.980706 -2.871232
2007-01-08 08:21:44 51°12.568 2°49.364 8.8358 3.54754 31.980706 -2.871232
2007-01-08 08:21:49 51°12.559 2°49.336 8.8353 3.547747 31.981077 -2.871232
2007-01-08 08:21:53 51°12.552 2°49.314 8.838 3.547954 31.981447 -2.871232
2007-01-08 08:21:58 51°12.542 2°49.287 8.8364 3.548162 31.980965 -2.871232
2007-01-08 08:22:03 51°12.533 2°49.259 8.8383 3.548576 31.985114 -2.871232
2007-01-08 08:22:09 51°12.522 2°49.226 8.8402 3.548679 31.984446 -2.871232
2007-01-08 08:22:13 51°12.514 2°49.204 8.8403 3.548679 31.984446 -2.871232
2007-01-08 08:22:18 51°12.505 2°49.177 8.842 3.54899 31.987558 -2.871232
2007-01-08 08:22:24 51°12.493 2°49.144 8.8443 3.549197 31.98878 -2.871232
2007-01-08 08:22:29 51°12.483 2°49.117 8.8451 3.549508 31.991039 -2.871232
2007-01-08 08:22:34 51°12.474 2°49.089 8.8431 3.549612 31.991224 -2.871232
2007-01-08 08:22:38 51°12.466 2°49.067 8.8447 3.549715 31.991409 -2.871232
2007-01-08 08:22:44 51°12.455 2°49.034 8.8432 3.549715 31.991409 -2.871232
2007-01-08 08:22:48 51°12.447 2°49.012 8.8463 3.549922 31.991778 -2.871232
2007-01-08 08:22:53 51°12.438 2°48.984 8.8465 3.550026 31.991963 -2.871232
2007-01-08 08:22:58 51°12.429 2°48.957 8.8484 3.550233 31.992333 -2.871232
2007-01-08 08:23:04 51°12.418 2°48.924 8.8486 3.550544 31.994592 -2.871232
2007-01-08 08:23:08 51°12.411 2°48.902 8.8492 3.550751 31.995813 -2.871232
2007-01-08 08:23:13 51°12.401 2°48.874 8.8501 3.550751 31.995813 -2.871232
2007-01-08 08:23:18 51°12.392 2°48.846 8.8503 3.551062 31.998924 -2.871232
2007-01-08 08:23:24 51°12.381 2°48.813 8.8536 3.551269 31.999293 -2.871232
2007-01-08 08:23:28 51°12.373 2°48.791 8.8555 3.551372 32.00033 -2.871232
2007-01-08 08:23:33 51°12.364 2°48.763 8.8577 3.551579 32.001552 -2.871232
2007-01-08 08:23:38 51°12.354 2°48.736 8.8575 3.551786 32.002773 -2.871232
2007-01-08 08:23:44 51°12.343 2°48.703 8.8599 3.551786 32.002773 -2.871232
2007-01-08 08:23:48 51°12.336 2°48.68 8.861 3.552097 32.005031 -2.871232
2007-01-08 08:23:53 51°12.326 2°48.653 8.8602 3.552408 32.00729 -2.871232
2007-01-08 08:23:58 51°12.317 2°48.625 8.8619 3.552719 32.008695 -2.871232
2007-01-08 08:24:04 51°12.306 2°48.591 8.862 3.553133 32.010285 -2.871232
2007-01-08 08:24:09 51°12.297 2°48.564 8.8652 3.553444 32.011691 -2.871232
2007-01-08 08:24:13 51°12.289 2°48.542 8.8639 3.553444 32.011691 -2.871232
2007-01-08 08:24:18 51°12.279 2°48.515 8.8643 3.553754 32.013096 -2.871232
2007-01-08 08:24:23 51°12.27 2°48.487 8.8678 3.554065 32.015354 -2.871232
2007-01-08 08:24:29 51°12.259 2°48.453 8.8689 3.554376 32.016759 -2.871232
2007-01-08 08:24:34 51°12.25 2°48.426 8.8685 3.554686 32.019017 -2.871232
2007-01-08 08:24:38 51°12.242 2°48.404 8.8693 3.554894 32.02109 -2.871232
2007-01-08 08:24:44 51°12.231 2°48.371 8.8708 3.554894 32.02109 -2.871232
2007-01-08 08:24:48 51°12.223 2°48.348 8.8717 3.555204 32.022495 -2.871232
2007-01-08 08:24:53 51°12.214 2°48.321 8.8727 3.555411 32.023715 -2.871232
2007-01-08 08:24:58 51°12.204 2°48.294 8.8745 3.555722 32.02512 -2.871232
2007-01-08 08:25:04 51°12.193 2°48.261 8.877 3.556136 32.028413 -2.871232
2007-01-08 08:25:08 51°12.185 2°48.239 8.8757 3.556447 32.031523 -2.871232
2007-01-08 08:25:14 51°12.174 2°48.206 8.8782 3.556447 32.031523 -2.871232
2007-01-08 08:25:18 51°12.166 2°48.183 8.8786 3.556758 32.032927 -2.871232
2007-01-08 08:25:24 51°12.155 2°48.15 8.8811 3.557069 32.035184 -2.871232
2007-01-08 08:25:28 51°12.147 2°48.128 8.883 3.557483 32.038477 -2.871232
2007-01-08 08:25:33 51°12.138 2°48.1 8.8819 3.557897 32.040917 -2.871232
2007-01-08 08:25:39 51°12.127 2°48.068 8.8811 3.558415 32.044393 -2.871232
2007-01-08 08:25:44 51°12.117 2°48.04 8.8862 3.558415 32.044393 -2.871232
2007-01-08 08:25:48 51°12.11 2°48.018 8.8848 3.558829 32.047686 -2.871232
2007-01-08 08:25:53 51°12.1 2°47.99 8.8839 3.55914 32.04909 -2.871232
2007-01-08 08:25:59 51°12.089 2°47.956 8.8856 3.559347 32.049457 -2.871232
2007-01-08 08:26:04 51°12.08 2°47.929 8.8858 3.559658 32.051713 -2.871232
2007-01-08 08:26:09 51°12.071 2°47.901 8.8905 3.560072 32.055005 -2.871232
2007-01-08 08:26:13 51°12.063 2°47.878 8.8882 3.560072 32.055005 -2.871232
2007-01-08 08:26:18 51°12.054 2°47.85 8.888 3.560279 32.055372 -2.871232
2007-01-08 08:26:24 51°12.042 2°47.817 8.8883 3.56059 32.057627 -2.871232
2007-01-08 08:26:29 51°12.033 2°47.789 8.8917 3.560901 32.060736 -2.871232
2007-01-08 08:26:34 51°12.024 2°47.761 8.8911 3.561211 32.062991 -2.871232
2007-01-08 08:26:38 51°12.016 2°47.739 8.8914 3.561419 32.064211 -2.871232
2007-01-08 08:26:44 51°12.005 2°47.706 8.8933 3.561419 32.064211 -2.871232
2007-01-08 08:26:49 51°11.996 2°47.678 8.8949 3.561729 32.065613 -2.871232
2007-01-08 08:26:53 51°11.988 2°47.656 8.8948 3.56204 32.069575 -2.871232
2007-01-08 08:26:58 51°11.979 2°47.628 8.897 3.562351 32.07183 -2.871232
2007-01-08 08:27:04 51°11.968 2°47.594 8.9008 3.562662 32.073232 -2.871232
2007-01-08 08:27:08 51°11.96 2°47.572 8.9004 3.562972 32.075487 -2.871232
2007-01-08 08:27:14 51°11.949 2°47.539 8.9015 3.562972 32.075487 -2.871232
2007-01-08 08:27:18 51°11.941 2°47.517 8.9028 3.563283 32.076889 -2.871232
2007-01-08 08:27:23 51°11.931 2°47.49 8.9054 3.560901 32.05221 -2.871232
2007-01-08 08:27:28 51°11.922 2°47.462 8.9066 3.564215 32.084507 -2.871232
2007-01-08 08:27:33 51°11.912 2°47.435 8.907 3.564526 32.085056 -2.871232
2007-01-08 08:27:38 51°11.903 2°47.407 8.9088 3.56494 32.087493 -2.871232
2007-01-08 08:27:44 51°11.892 2°47.374 8.9072 3.56494 32.087493 -2.871232
2007-01-08 08:27:48 51°11.885 2°47.351 8.9114 3.565354 32.090783 -2.871232
2007-01-08 08:27:53 51°11.875 2°47.324 8.9123 3.565769 32.09322 -2.871232
2007-01-08 08:27:59 51°11.864 2°47.291 8.9111 3.566183 32.095657 -2.871232
2007-01-08 08:28:04 51°11.855 2°47.263 8.9125 3.566597 32.098094 -2.871232
2007-01-08 08:28:08 51°11.848 2°47.241 8.9126 3.567012 32.10053 -2.871232
2007-01-08 08:28:13 51°11.838 2°47.213 8.9135 3.567012 32.10053 -2.871232
2007-01-08 08:28:18 51°11.828 2°47.186 8.9128 3.567426 32.10382 -2.871232
2007-01-08 08:28:24 51°11.817 2°47.152 8.9142 3.567737 32.10522 -2.871232
2007-01-08 08:28:29 51°11.808 2°47.125 8.9155 3.568047 32.108327 -2.871232
2007-01-08 08:28:33 51°11.8 2°47.103 8.9168 3.568462 32.111617 -2.871232
2007-01-08 08:28:38 51°11.791 2°47.075 8.9196 3.568772 32.114724 -2.871232
2007-01-08 08:28:43 51°11.781 2°47.047 8.9194 3.568772 32.114724 -2.871232
2007-01-08 08:28:49 51°11.77 2°47.013 8.9186 3.569083 32.116977 -2.871232
2007-01-08 08:28:53 51°11.763 2°46.991 8.9209 3.56929 32.119049 -2.871232
2007-01-08 08:28:58 51°11.754 2°46.963 8.9214 3.569705 32.121484 -2.871232
2007-01-08 08:29:04 51°11.742 2°46.93 8.9253 3.570015 32.122884 -2.871232
2007-01-08 08:29:09 51°11.733 2°46.902 8.923 3.570326 32.124283 -2.871232
2007-01-08 08:29:13 51°11.726 2°46.88 8.9237 3.570326 32.124283 -2.871232
2007-01-08 08:29:18 51°11.716 2°46.852 8.9245 3.57074 32.127572 -2.871232
2007-01-08 08:29:23 51°11.707 2°46.824 8.9241 3.571051 32.129825 -2.871232
2007-01-08 08:29:28 51°11.697 2°46.796 8.922 3.570326 32.121722 -2.871232
2007-01-08 08:29:34 51°11.686 2°46.763 8.923 3.569601 32.112767 -2.871232
2007-01-08 08:29:38 51°11.679 2°46.741 8.9252 3.571362 32.129517 -2.871232
2007-01-08 08:29:44 51°11.667 2°46.707 8.9268 3.571362 32.129517 -2.871232
2007-01-08 08:29:48 51°11.66 2°46.685 8.9254 3.572087 32.135911 -2.871232
2007-01-08 08:29:53 51°11.65 2°46.657 8.9271 3.572398 32.139872 -2.871232
2007-01-08 08:29:59 51°11.64 2°46.624 8.9281 3.572708 32.142124 -2.871232
2007-01-08 08:30:04 51°11.63 2°46.596 8.9287 3.572915 32.144195 -2.871232
2007-01-08 08:30:08 51°11.623 2°46.574 8.9285 3.573123 32.146266 -2.871232
2007-01-08 08:30:13 51°11.613 2°46.546 8.9297 3.573123 32.146266 -2.871232
2007-01-08 08:30:19 51°11.602 2°46.512 8.9305 3.57333 32.147483 -2.871232
2007-01-08 08:30:24 51°11.593 2°46.484 8.9301 3.57364 32.149736 -2.871232
2007-01-08 08:30:29 51°11.584 2°46.456 8.9314 3.573848 32.150952 -2.871232
2007-01-08 08:30:33 51°11.577 2°46.434 8.9325 3.574055 32.152169 -2.871232
2007-01-08 08:30:38 51°11.568 2°46.405 8.9353 3.574365 32.153567 -2.871232
2007-01-08 08:30:44 51°11.557 2°46.371 8.9337 3.574365 32.153567 -2.871232
2007-01-08 08:30:49 51°11.549 2°46.343 8.935 3.574573 32.155638 -2.871232
2007-01-08 08:30:53 51°11.541 2°46.32 8.9337 3.574987 32.158926 -2.871232
2007-01-08 08:30:58 51°11.533 2°46.292 8.9354 3.575298 32.161178 -2.871232
2007-01-08 08:31:04 51°11.522 2°46.257 8.9347 3.575608 32.162575 -2.871232
2007-01-08 08:31:09 51°11.514 2°46.229 8.9378 3.575816 32.164646 -2.871232
2007-01-08 08:31:13 51°11.507 2°46.206 8.9366 3.575816 32.164646 -2.871232
2007-01-08 08:31:18 51°11.498 2°46.177 8.9366 3.576126 32.166898 -2.871232
2007-01-08 08:31:23 51°11.489 2°46.149 8.9387 3.576644 32.172075 -2.871232
2007-01-08 08:31:29 51°11.478 2°46.115 8.9385 3.576851 32.173291 -2.871232
2007-01-08 08:31:34 51°11.47 2°46.086 8.9396 3.577162 32.175542 -2.871232
2007-01-08 08:31:38 51°11.463 2°46.064 8.9396 3.577266 32.176578 -2.871232
2007-01-08 08:31:44 51°11.453 2°46.029 8.9381 3.577266 32.176578 -2.871232
2007-01-08 08:31:48 51°11.446 2°46.007 8.9385 3.577576 32.179684 -2.871232
2007-01-08 08:31:53 51°11.437 2°45.978 8.941 3.577991 32.182971 -2.871232
2007-01-08 08:31:58 51°11.429 2°45.95 8.9409 3.578198 32.183332 -2.871232
2007-01-08 08:32:04 51°11.418 2°45.916 8.9405 3.578509 32.186438 -2.871232
2007-01-08 08:32:08 51°11.411 2°45.894 8.9405 3.578819 32.189544 -2.871232
2007-01-08 08:32:14 51°11.401 2°45.859 8.9427 3.578819 32.189544 -2.871232
2007-01-08 08:32:19 51°11.392 2°45.831 8.9432 3.57913 32.19265 -2.871232
2007-01-08 08:32:24 51°11.384 2°45.803 8.9447 3.579441 32.194901 -2.871232
2007-01-08 08:32:28 51°11.376 2°45.78 8.9445 3.579752 32.197152 -2.871232
2007-01-08 08:32:33 51°11.367 2°45.752 8.9464 3.580062 32.199403 -2.871232
2007-01-08 08:32:38 51°11.359 2°45.724 8.9456 3.580373 32.201654 -2.871232
2007-01-08 08:32:44 51°11.349 2°45.689 8.9482 3.580373 32.201654 -2.871232
2007-01-08 08:32:49 51°11.34 2°45.661 8.9488 3.580684 32.203905 -2.871232
2007-01-08 08:32:53 51°11.333 2°45.638 8.9498 3.581202 32.209081 -2.871232
2007-01-08 08:32:58 51°11.324 2°45.61 8.9494 3.58172 32.213403 -2.871232
2007-01-08 08:33:04 51°11.314 2°45.576 8.9516 3.58203 32.214798 -2.871232
2007-01-08 08:33:08 51°11.307 2°45.554 8.9524 3.582445 32.218084 -2.871232
2007-01-08 08:33:13 51°11.298 2°45.525 8.9549 3.582445 32.218084 -2.871232
2007-01-08 08:33:18 51°11.289 2°45.497 8.9528 3.582963 32.222404 -2.871232
2007-01-08 08:33:23 51°11.281 2°45.468 8.9554 3.583273 32.224655 -2.871232
2007-01-08 08:33:29 51°11.271 2°45.435 8.9554 3.583688 32.228796 -2.871232
2007-01-08 08:33:33 51°11.263 2°45.412 8.9579 3.583998 32.23019 -2.871232
2007-01-08 08:33:38 51°11.255 2°45.384 8.9585 3.584413 32.233475 -2.871232
2007-01-08 08:33:43 51°11.246 2°45.356 8.9582 3.584413 32.233475 -2.871232
2007-01-08 08:33:49 51°11.236 2°45.322 8.9612 3.584827 32.235905 -2.871232
2007-01-08 08:33:54 51°11.227 2°45.294 8.9615 3.585241 32.23919 -2.871232
2007-01-08 08:33:58 51°11.22 2°45.271 8.9626 3.585759 32.244366 -2.871232
2007-01-08 08:34:04 51°11.21 2°45.237 8.9642 3.58607 32.245759 -2.871232
2007-01-08 08:34:08 51°11.203 2°45.214 8.9628 3.586381 32.247153 -2.871232
2007-01-08 08:34:14 51°11.193 2°45.18 8.9632 3.586381 32.247153 -2.871232
2007-01-08 08:34:19 51°11.184 2°45.152 8.9627 3.586484 32.247332 -2.871232
2007-01-08 08:34:24 51°11.176 2°45.123 8.9631 3.586795 32.249582 -2.871232
2007-01-08 08:34:28 51°11.169 2°45.101 8.9646 3.587106 32.251831 -2.871232
2007-01-08 08:34:33 51°11.16 2°45.072 8.9644 3.58752 32.254259 -2.871232
2007-01-08 08:34:38 51°11.152 2°45.044 8.9633 3.588142 32.259613 -2.871232
2007-01-08 08:34:44 51°11.142 2°45.009 8.9666 3.588142 32.259613 -2.871232
2007-01-08 08:34:49 51°11.133 2°44.981 8.9661 3.588659 32.264789 -2.871232
2007-01-08 08:34:53 51°11.126 2°44.958 8.9683 3.589281 32.270999 -2.871232
2007-01-08 08:34:58 51°11.117 2°44.93 8.9695 3.589695 32.274283 -2.871232
2007-01-08 08:35:04 51°11.107 2°44.896 8.9701 3.589799 32.275318 -2.871232
2007-01-08 08:35:08 51°11.1 2°44.873 8.9706 3.589799 32.275318 -2.871232
2007-01-08 08:35:13 51°11.091 2°44.845 8.9709 3.589799 32.275318 -2.871232
2007-01-08 08:35:18 51°11.082 2°44.817 8.9742 3.589592 32.272392 -2.871232
2007-01-08 08:35:24 51°11.072 2°44.783 8.973 3.589384 32.269465 -2.871232
2007-01-08 08:35:29 51°11.063 2°44.754 8.9714 3.589177 32.265682 -2.871232
2007-01-08 08:35:33 51°11.057 2°44.732 8.9716 3.589177 32.264826 -2.871232
2007-01-08 08:35:38 51°11.048 2°44.703 8.9745 3.589384 32.26604 -2.871232
2007-01-08 08:35:43 51°11.04 2°44.675 8.9733 3.589384 32.26604 -2.871232
2007-01-08 08:35:49 51°11.029 2°44.641 8.9757 3.589799 32.269323 -2.871232
2007-01-08 08:35:54 51°11.021 2°44.613 8.9787 3.59042 32.274677 -2.871232
2007-01-08 08:35:58 51°11.014 2°44.59 8.9781 3.591145 32.281065 -2.871232
2007-01-08 08:36:04 51°11.004 2°44.555 8.9773 3.591974 32.289344 -2.871232
2007-01-08 08:36:08 51°10.998 2°44.533 8.9763 3.592285 32.291592 -2.871232
2007-01-08 08:36:14 51°10.987 2°44.499 8.9761 3.592285 32.291592 -2.871232
2007-01-08 08:36:19 51°10.979 2°44.47 8.9783 3.592492 32.292805 -2.871232
2007-01-08 08:36:24 51°10.971 2°44.442 8.9789 3.592492 32.291949 -2.871232
2007-01-08 08:36:28 51°10.964 2°44.419 8.9786 3.592285 32.289022 -2.871232
2007-01-08 08:36:33 51°10.955 2°44.391 8.9776 3.592078 32.286096 -2.871232
2007-01-08 08:36:38 51°10.947 2°44.363 8.981 3.591974 32.285061 -2.871232
2007-01-08 08:36:44 51°10.936 2°44.328 8.9822 3.591974 32.285061 -2.871232
2007-01-08 08:36:48 51°10.929 2°44.306 8.9789 3.591767 32.282991 -2.871232
2007-01-08 08:36:53 51°10.921 2°44.278 8.9788 3.591663 32.281957 -2.871232
2007-01-08 08:36:58 51°10.912 2°44.249 8.9787 3.591456 32.279031 -2.871232
2007-01-08 08:37:04 51°10.902 2°44.215 8.9801 3.591352 32.27714 -2.871232
2007-01-08 08:37:08 51°10.895 2°44.193 8.9777 3.591249 32.275249 -2.871232
2007-01-08 08:37:13 51°10.887 2°44.164 8.9801 3.591249 32.275249 -2.871232
2007-01-08 08:37:18 51°10.878 2°44.136 8.9799 3.591042 32.273179 -2.871232
2007-01-08 08:37:24 51°10.868 2°44.102 8.9798 3.590731 32.270075 -2.871232
2007-01-08 08:37:28 51°10.861 2°44.079 8.9756 3.590213 32.264046 -2.871232
2007-01-08 08:37:33 51°10.853 2°44.051 8.9786 3.589695 32.259729 -2.871232
2007-01-08 08:37:38 51°10.844 2°44.022 8.9779 3.589281 32.254735 -2.871232
2007-01-08 08:37:44 51°10.834 2°43.988 8.9785 3.589281 32.254735 -2.871232
2007-01-08 08:37:49 51°10.826 2°43.96 8.9774 3.588659 32.249383 -2.871232
2007-01-08 08:37:53 51°10.819 2°43.937 8.9775 3.588141 32.243355 -2.871232
2007-01-08 08:37:58 51°10.811 2°43.909 8.976 3.587623 32.239037 -2.871232
2007-01-08 08:38:03 51°10.802 2°43.881 8.9766 3.587002 32.233685 -2.871232
2007-01-08 08:38:09 51°10.792 2°43.846 8.9749 3.58638 32.228333 -2.871232
2007-01-08 08:38:14 51°10.784 2°43.818 8.9736 3.58638 32.228333 -2.871232
2007-01-08 08:38:18 51°10.776 2°43.796 8.9747 3.58607 32.22523 -2.871232
2007-01-08 08:38:24 51°10.766 2°43.762 8.9739 3.585552 32.220057 -2.871232
2007-01-08 08:38:29 51°10.758 2°43.734 8.977 3.585034 32.215739 -2.871232
2007-01-08 08:38:34 51°10.749 2°43.706 8.9767 3.58462 32.211601 -2.871232
2007-01-08 08:38:38 51°10.742 2°43.683 8.9785 3.584205 32.208318 -2.871232
2007-01-08 08:38:44 51°10.732 2°43.649 8.9781 3.584205 32.208318 -2.871232
2007-01-08 08:38:48 51°10.725 2°43.627 8.979 3.583687 32.204 -2.871232
2007-01-08 08:38:54 51°10.715 2°43.593 8.981 3.583377 32.200897 -2.871232
2007-01-08 08:38:58 51°10.708 2°43.571 8.9799 3.583066 32.197793 -2.871232
2007-01-08 08:39:04 51°10.698 2°43.536 8.98 3.583066 32.196939 -2.871232
2007-01-08 08:39:08 51°10.692 2°43.514 8.9837 3.583273 32.1973 -2.871232
2007-01-08 08:39:13 51°10.684 2°43.485 8.9822 3.583273 32.1973 -2.871232
2007-01-08 08:39:19 51°10.674 2°43.451 8.9814 3.583791 32.201617 -2.871232
2007-01-08 08:39:24 51°10.665 2°43.423 8.9834 3.584516 32.207149 -2.871232
2007-01-08 08:39:28 51°10.659 2°43.401 8.9817 3.585137 32.213356 -2.871232
2007-01-08 08:39:33 51°10.65 2°43.372 8.9812 3.585759 32.218707 -2.871232
2007-01-08 08:39:38 51°10.642 2°43.344 8.9808 3.586173 32.22199 -2.871232
2007-01-08 08:39:44 51°10.632 2°43.311 8.9811 3.586173 32.22199 -2.871232
2007-01-08 08:39:49 51°10.623 2°43.283 8.9796 3.586277 32.223025 -2.871232
2007-01-08 08:39:53 51°10.616 2°43.26 8.9813 3.585966 32.220776 -2.871232
2007-01-08 08:39:58 51°10.607 2°43.232 8.9788 3.585552 32.216639 -2.871232
2007-01-08 08:40:04 51°10.598 2°43.199 8.9793 3.585034 32.210612 -2.871232
2007-01-08 08:40:09 51°10.589 2°43.17 8.9795 3.584412 32.204406 -2.871232
2007-01-08 08:40:14 51°10.581 2°43.142 8.9799 3.584412 32.204406 -2.871232
2007-01-08 08:40:18 51°10.574 2°43.12 8.9825 3.583687 32.198021 -2.871232
2007-01-08 08:40:24 51°10.565 2°43.086 8.9816 3.583169 32.192849 -2.871232
2007-01-08 08:40:29 51°10.557 2°43.057 8.9801 3.582651 32.187678 -2.871232
2007-01-08 08:40:34 51°10.549 2°43.029 8.9797 3.582133 32.18336 -2.871232
2007-01-08 08:40:38 51°10.543 2°43.007 8.981 3.581926 32.181292 -2.871232
2007-01-08 08:40:44 51°10.533 2°42.973 8.9808 3.581926 32.181292 -2.871232
2007-01-08 08:40:48 51°10.526 2°42.951 8.9803 3.581823 32.179404 -2.871232
2007-01-08 08:40:54 51°10.515 2°42.918 8.9813 3.581823 32.179404 -2.871232
2007-01-08 08:40:58 51°10.509 2°42.896 8.9809 3.58203 32.180619 -2.871232
2007-01-08 08:41:04 51°10.498 2°42.863 8.9817 3.582341 32.184575 -2.871232
2007-01-08 08:41:08 51°10.491 2°42.841 8.9791 3.582859 32.189746 -2.871232
2007-01-08 08:41:14 51°10.481 2°42.807 8.9783 3.582859 32.189746 -2.871232
2007-01-08 08:41:18 51°10.474 2°42.786 8.9778 3.583376 32.195772 -2.871232
2007-01-08 08:41:24 51°10.464 2°42.752 8.9788 3.583687 32.198021 -2.871232
2007-01-08 08:41:28 51°10.457 2°42.73 8.9792 3.583273 32.193883 -2.871232
2007-01-08 08:41:33 51°10.449 2°42.702 8.9819 3.582341 32.184575 -2.871232
2007-01-08 08:41:39 51°10.439 2°42.668 8.9778 3.581201 32.174053 -2.871232
2007-01-08 08:41:44 51°10.431 2°42.64 8.9813 3.581201 32.174053 -2.871232
2007-01-08 08:41:48 51°10.425 2°42.617 8.9821 3.580165 32.164564 -2.871232
2007-01-08 08:41:53 51°10.418 2°42.589 8.9774 3.578715 32.150086 -2.871232
2007-01-08 08:41:58 51°10.41 2°42.56 8.9799 3.577576 32.138711 -2.871232
2007-01-08 08:42:04 51°10.4 2°42.527 8.9771 3.576747 32.129587 -2.871232
2007-01-08 08:42:09 51°10.392 2°42.499 8.9775 3.576126 32.124235 -2.871232
2007-01-08 08:42:13 51°10.385 2°42.476 8.9758 3.576126 32.124235 -2.871232
2007-01-08 08:42:18 51°10.377 2°42.449 8.9779 3.575815 32.119429 -2.871232
2007-01-08 08:42:24 51°10.366 2°42.415 8.9758 3.575297 32.115111 -2.871232
2007-01-08 08:42:29 51°10.358 2°42.388 8.9758 3.57509 32.113895 -2.871232
2007-01-08 08:42:34 51°10.349 2°42.36 8.9751 3.574779 32.111645 -2.871232
2007-01-08 08:42:38 51°10.342 2°42.339 8.9752 3.574365 32.108361 -2.871232
2007-01-08 08:42:44 51°10.332 2°42.305 8.9771 3.574365 32.108361 -2.871232
2007-01-08 08:42:49 51°10.324 2°42.277 8.9814 3.573951 32.104226 -2.871232
2007-01-08 08:42:54 51°10.316 2°42.249 8.9798 3.573847 32.104043 -2.871232
2007-01-08 08:42:58 51°10.31 2°42.226 8.9752 3.574365 32.110065 -2.871232
2007-01-08 08:43:04 51°10.301 2°42.193 8.9703 3.574883 32.115235 -2.871232
2007-01-08 08:43:08 51°10.294 2°42.17 8.9687 3.575504 32.121439 -2.871232
2007-01-08 08:43:13 51°10.287 2°42.142 8.9726 3.575504 32.121439 -2.871232
2007-01-08 08:43:18 51°10.278 2°42.114 8.9734 3.575711 32.121803 -2.871232
2007-01-08 08:43:24 51°10.269 2°42.081 8.9711 3.575401 32.117849 -2.871232
2007-01-08 08:43:28 51°10.263 2°42.058 8.9704 3.574468 32.109395 -2.871232
2007-01-08 08:43:34 51°10.253 2°42.024 8.9671 3.572397 32.091271 -2.871232
2007-01-08 08:43:38 51°10.247 2°42.002 8.9637 3.56929 32.062806 -2.871232
2007-01-08 08:43:44 51°10.238 2°41.968 8.9645 3.56929 32.062806 -2.871232
2007-01-08 08:43:48 51°10.231 2°41.946 8.9649 3.565457 32.024556 -2.871232
2007-01-08 08:43:53 51°10.223 2°41.918 8.9664 3.562557 31.995615 -2.871232
2007-01-08 08:43:59 51°10.214 2°41.884 8.9696 3.559864 31.968744 -2.871232
2007-01-08 08:44:04 51°10.206 2°41.856 8.9682 3.557689 31.948738 -2.871232
2007-01-08 08:44:08 51°10.2 2°41.834 8.9623 3.55541 31.927699 -2.871232
2007-01-08 08:44:13 51°10.192 2°41.805 8.9647 3.55541 31.927699 -2.871232
2007-01-08 08:44:18 51°10.183 2°41.778 8.9627 3.553753 31.91286 -2.871232
2007-01-08 08:44:24 51°10.174 2°41.744 8.9627 3.552614 31.900647 -2.871232
2007-01-08 08:44:29 51°10.166 2°41.716 8.9634 3.551889 31.893415 -2.871232
2007-01-08 08:44:33 51°10.16 2°41.694 8.9656 3.551371 31.888249 -2.871232
2007-01-08 08:44:38 51°10.152 2°41.665 8.9676 3.551267 31.888062 -2.871232
2007-01-08 08:44:44 51°10.144 2°41.63 8.9687 3.551267 31.888062 -2.871232
2007-01-08 08:44:49 51°10.137 2°41.601 8.9704 3.551578 31.892008 -2.871232
2007-01-08 08:44:54 51°10.131 2°41.572 8.9689 3.552096 31.897174 -2.871232
2007-01-08 08:44:58 51°10.125 2°41.549 8.9721 3.553132 31.908353 -2.871232
2007-01-08 08:45:04 51°10.118 2°41.515 8.9727 3.554271 31.918873 -2.871232
2007-01-08 08:45:09 51°10.111 2°41.486 8.9792 3.556032 31.935594 -2.871232
2007-01-08 08:45:13 51°10.106 2°41.463 8.9763 3.556032 31.935594 -2.871232
2007-01-08 08:45:18 51°10.098 2°41.434 8.9748 3.558103 31.954567 -2.871232
2007-01-08 08:45:24 51°10.089 2°41.4 8.9777 3.560589 31.978523 -2.871232
2007-01-08 08:45:28 51°10.083 2°41.378 8.9803 3.563386 32.004733 -2.871232
2007-01-08 08:45:34 51°10.073 2°41.344 8.9828 3.566079 32.029909 -2.871232
2007-01-08 08:45:38 51°10.067 2°41.321 8.9846 3.568875 32.05697 -2.871232
2007-01-08 08:45:44 51°10.057 2°41.288 8.9848 3.568875 32.05697 -2.871232
2007-01-08 08:45:48 51°10.05 2°41.265 8.9885 3.5725 32.092305 -2.871232
2007-01-08 08:45:54 51°10.041 2°41.231 8.9904 3.577162 32.137985 -2.871232
2007-01-08 08:45:59 51°10.033 2°41.203 8.99 3.580787 32.172476 -2.871232
2007-01-08 08:46:04 51°10.025 2°41.175 8.9952 3.584102 32.203866 -2.871232
2007-01-08 08:46:08 51°10.019 2°41.153 8.9977 3.58752 32.236293 -2.871232
2007-01-08 08:46:13 51°10.011 2°41.124 8.9995 3.58752 32.236293 -2.871232
2007-01-08 08:46:19 51°10.003 2°41.09 9.0007 3.590213 32.261479 -2.871232
2007-01-08 08:46:24 51°9.995 2°41.061 8.9995 3.592699 32.282884 -2.871232
2007-01-08 08:46:29 51°9.988 2°41.032 9.0009 3.595703 32.311174 -2.871232
2007-01-08 08:46:33 51°9.982 2°41.009 9.0012 3.597049 32.321196 -2.871232
2007-01-08 08:46:38 51°9.976 2°40.98 9.0036 3.598914 32.337247 -2.871232
2007-01-08 08:46:44 51°9.968 2°40.945 9.0045 3.598914 32.337247 -2.871232
2007-01-08 08:46:49 51°9.961 2°40.916 9.007 3.601296 32.35847 -2.871232
2007-01-08 08:46:54 51°9.955 2°40.887 9.0079 3.603368 32.377447 -2.871232
2007-01-08 08:46:58 51°9.949 2°40.863 9.0077 3.605233 32.395213 -2.871232
2007-01-08 08:47:04 51°9.941 2°40.828 9.0079 3.606683 32.40884 -2.871232
2007-01-08 08:47:09 51°9.934 2°40.799 9.0084 3.607512 32.4154 -2.871232
2007-01-08 08:47:13 51°9.929 2°40.776 9.0082 3.607512 32.4154 -2.871232
2007-01-08 08:47:18 51°9.921 2°40.747 9.0116 3.608444 32.422994 -2.871232
2007-01-08 08:47:24 51°9.912 2°40.713 9.014 3.609376 32.431447 -2.871232
2007-01-08 08:47:29 51°9.905 2°40.684 9.0181 3.610412 32.440935 -2.871232
2007-01-08 08:47:33 51°9.899 2°40.661 9.0153 3.611552 32.452318 -2.871232
2007-01-08 08:47:38 51°9.891 2°40.633 9.0135 3.612587 32.461806 -2.871232
2007-01-08 08:47:44 51°9.882 2°40.598 9.0178 3.612587 32.461806 -2.871232
2007-01-08 08:47:48 51°9.876 2°40.575 9.016 3.61352 32.470259 -2.871232
2007-01-08 08:47:54 51°9.867 2°40.541 9.023 3.614245 32.476643 -2.871232
2007-01-08 08:47:58 51°9.862 2°40.518 9.0226 3.614763 32.479234 -2.871232
2007-01-08 08:48:04 51°9.853 2°40.483 9.0234 3.615695 32.486826 -2.871232
2007-01-08 08:48:08 51°9.848 2°40.459 9.0224 3.616835 32.497348 -2.871232
2007-01-08 08:48:13 51°9.841 2°40.43 9.0241 3.616835 32.497348 -2.871232
2007-01-08 08:48:19 51°9.833 2°40.395 9.0273 3.61787 32.506835 -2.871232
2007-01-08 08:48:24 51°9.827 2°40.366 9.0253 3.618803 32.515287 -2.871232
2007-01-08 08:48:28 51°9.821 2°40.343 9.0269 3.619321 32.517877 -2.871232
2007-01-08 08:48:33 51°9.814 2°40.314 9.0254 3.620253 32.525466 -2.871232
2007-01-08 08:48:39 51°9.806 2°40.279 9.0247 3.620978 32.531848 -2.871232
2007-01-08 08:48:44 51°9.798 2°40.25 9.0285 3.620978 32.531848 -2.871232
2007-01-08 08:48:49 51°9.791 2°40.221 9.0285 3.6216 32.537195 -2.871232
2007-01-08 08:48:53 51°9.785 2°40.198 9.0262 3.62191 32.538575 -2.871232
2007-01-08 08:48:58 51°9.777 2°40.17 9.0285 3.62191 32.537713 -2.871232
2007-01-08 08:49:04 51°9.768 2°40.135 9.0249 3.622014 32.538748 -2.871232
2007-01-08 08:49:09 51°9.76 2°40.106 9.0281 3.622118 32.539783 -2.871232
2007-01-08 08:49:13 51°9.754 2°40.083 9.0302 3.622118 32.539783 -2.871232
2007-01-08 08:49:18 51°9.747 2°40.054 9.0305 3.622221 32.539955 -2.871232
2007-01-08 08:49:24 51°9.738 2°40.02 9.0332 3.622221 32.539955 -2.871232
2007-01-08 08:49:29 51°9.731 2°39.99 9.0293 3.622325 32.540128 -2.871232
2007-01-08 08:49:33 51°9.725 2°39.967 9.0275 3.622325 32.54099 -2.871232
2007-01-08 08:49:38 51°9.718 2°39.938 9.0286 3.622325 32.540128 -2.871232
2007-01-08 08:49:44 51°9.709 2°39.903 9.0311 3.622325 32.540128 -2.871232
2007-01-08 08:49:48 51°9.703 2°39.88 9.0305 3.622221 32.538231 -2.871232
2007-01-08 08:49:54 51°9.694 2°39.846 9.0295 3.622117 32.536335 -2.871232
2007-01-08 08:49:58 51°9.689 2°39.822 9.0294 3.622014 32.534438 -2.871232
2007-01-08 08:50:04 51°9.68 2°39.788 9.0295 3.622117 32.536335 -2.871232
2007-01-08 08:50:08 51°9.674 2°39.764 9.0297 3.622221 32.53737 -2.871232
2007-01-08 08:50:14 51°9.665 2°39.729 9.0296 3.622221 32.53737 -2.871232
2007-01-08 08:50:19 51°9.658 2°39.7 9.0299 3.622221 32.53737 -2.871232
2007-01-08 08:50:24 51°9.651 2°39.671 9.0352 3.622325 32.537542 -2.871232
2007-01-08 08:50:28 51°9.645 2°39.648 9.0323 3.622428 32.539439 -2.871232
2007-01-08 08:50:33 51°9.637 2°39.619 9.0331 3.622532 32.540473 -2.871232
2007-01-08 08:50:39 51°9.629 2°39.584 9.0329 3.622739 32.541681 -2.871232
2007-01-08 08:50:44 51°9.621 2°39.555 9.0326 3.622739 32.541681 -2.871232
2007-01-08 08:50:49 51°9.614 2°39.526 9.0328 3.622843 32.542715 -2.871232
2007-01-08 08:50:53 51°9.608 2°39.503 9.0348 3.62305 32.543923 -2.871232
2007-01-08 08:50:59 51°9.599 2°39.468 9.0328 3.623153 32.543233 -2.871232
2007-01-08 08:51:04 51°9.591 2°39.439 9.0316 3.623361 32.545302 -2.871232
2007-01-08 08:51:09 51°9.584 2°39.41 9.0321 3.623671 32.549268 -2.871232
2007-01-08 08:51:13 51°9.578 2°39.387 9.0323 3.623671 32.549268 -2.871232
2007-01-08 08:51:18 51°9.571 2°39.358 9.0349 3.623982 32.552372 -2.871232
2007-01-08 08:51:24 51°9.562 2°39.322 9.0352 3.624189 32.553579 -2.871232
2007-01-08 08:51:29 51°9.555 2°39.293 9.0336 3.624396 32.555649 -2.871232
2007-01-08 08:51:33 51°9.55 2°39.27 9.0335 3.624604 32.557718 -2.871232
2007-01-08 08:51:38 51°9.543 2°39.24 9.0335 3.624914 32.560822 -2.871232
2007-01-08 08:51:44 51°9.534 2°39.206 9.0325 3.624914 32.560822 -2.871232
2007-01-08 08:51:49 51°9.527 2°39.176 9.0343 3.625122 32.562891 -2.871232
2007-01-08 08:51:54 51°9.519 2°39.147 9.0351 3.625225 32.563926 -2.871232
2007-01-08 08:51:58 51°9.514 2°39.124 9.0341 3.625432 32.565995 -2.871232
2007-01-08 08:52:03 51°9.507 2°39.094 9.0348 3.62564 32.567202 -2.871232
2007-01-08 08:52:08 51°9.5 2°39.065 9.0343 3.625847 32.569271 -2.871232
2007-01-08 08:52:14 51°9.491 2°39.03 9.0341 3.625847 32.569271 -2.871232
2007-01-08 08:52:18 51°9.486 2°39.006 9.0347 3.626054 32.571341 -2.871232
2007-01-08 08:52:24 51°9.478 2°38.971 9.0362 3.626158 32.572375 -2.871232
2007-01-08 08:52:28 51°9.472 2°38.947 9.0356 3.626365 32.574445 -2.871232
2007-01-08 08:52:33 51°9.465 2°38.918 9.0347 3.626572 32.575651 -2.871232
2007-01-08 08:52:39 51°9.456 2°38.883 9.0345 3.626779 32.577721 -2.871232
2007-01-08 08:52:44 51°9.449 2°38.854 9.0367 3.626779 32.577721 -2.871232
2007-01-08 08:52:48 51°9.443 2°38.83 9.0396 3.626883 32.578755 -2.871232
2007-01-08 08:52:53 51°9.436 2°38.801 9.0385 3.626986 32.57979 -2.871232
2007-01-08 08:52:59 51°9.427 2°38.766 9.0393 3.627193 32.580997 -2.871232
2007-01-08 08:53:04 51°9.419 2°38.737 9.0373 3.627297 32.582894 -2.871232
2007-01-08 08:53:09 51°9.412 2°38.708 9.0398 3.627504 32.584101 -2.871232
2007-01-08 08:53:13 51°9.406 2°38.685 9.0391 3.627504 32.584101 -2.871232
2007-01-08 08:53:18 51°9.399 2°38.655 9.0405 3.627504 32.583238 -2.871232
2007-01-08 08:53:24 51°9.39 2°38.621 9.0419 3.627608 32.583409 -2.871232
2007-01-08 08:53:29 51°9.384 2°38.591 9.0416 3.627815 32.584616 -2.871232
2007-01-08 08:53:33 51°9.378 2°38.568 9.0439 3.628022 32.586685 -2.871232
2007-01-08 08:53:38 51°9.371 2°38.538 9.044 3.628126 32.586857 -2.871232
2007-01-08 08:53:44 51°9.363 2°38.503 9.0448 3.628126 32.586857 -2.871232
2007-01-08 08:53:49 51°9.356 2°38.473 9.0457 3.628229 32.587028 -2.871232
2007-01-08 08:53:53 51°9.35 2°38.45 9.0463 3.628437 32.589098 -2.871232
2007-01-08 08:53:58 51°9.344 2°38.421 9.0512 3.62854 32.589269 -2.871232
2007-01-08 08:54:03 51°9.337 2°38.391 9.0479 3.628644 32.589441 -2.871232
2007-01-08 08:54:08 51°9.33 2°38.362 9.0487 3.628644 32.588578 -2.871232
2007-01-08 08:54:14 51°9.321 2°38.327 9.0501 3.628644 32.588578 -2.871232
2007-01-08 08:54:18 51°9.315 2°38.303 9.0487 3.628644 32.586852 -2.871232
2007-01-08 08:54:24 51°9.307 2°38.268 9.0511 3.628851 32.588921 -2.871232
2007-01-08 08:54:28 51°9.301 2°38.245 9.0513 3.628851 32.588058 -2.871232
2007-01-08 08:54:34 51°9.292 2°38.21 9.0505 3.628747 32.586161 -2.871232
2007-01-08 08:54:39 51°9.285 2°38.18 9.0497 3.628954 32.587367 -2.871232
2007-01-08 08:54:44 51°9.279 2°38.151 9.0511 3.628954 32.587367 -2.871232
2007-01-08 08:54:48 51°9.273 2°38.128 9.0515 3.628954 32.586504 -2.871232
2007-01-08 08:54:53 51°9.266 2°38.098 9.0529 3.629058 32.587539 -2.871232
2007-01-08 08:54:59 51°9.257 2°38.063 9.0521 3.629058 32.585813 -2.871232
2007-01-08 08:55:04 51°9.25 2°38.034 9.0551 3.629162 32.586848 -2.871232
2007-01-08 08:55:09 51°9.244 2°38.004 9.0546 3.629265 32.587019 -2.871232
2007-01-08 08:55:13 51°9.238 2°37.98 9.0564 3.629265 32.587019 -2.871232
2007-01-08 08:55:19 51°9.23 2°37.945 9.0575 3.629162 32.585985 -2.871232
2007-01-08 08:55:24 51°9.223 2°37.916 9.0553 3.629161 32.58426 -2.871232
2007-01-08 08:55:29 51°9.216 2°37.887 9.0569 3.629265 32.585294 -2.871232
2007-01-08 08:55:34 51°9.208 2°37.857 9.0596 3.629265 32.584431 -2.871232
2007-01-08 08:55:38 51°9.202 2°37.834 9.0622 3.629265 32.584431 -2.871232
2007-01-08 08:55:44 51°9.194 2°37.799 9.0597 3.629265 32.584431 -2.871232
2007-01-08 08:55:49 51°9.187 2°37.77 9.0592 3.629265 32.583569 -2.871232
2007-01-08 08:55:53 51°9.181 2°37.746 9.0611 3.629369 32.582878 -2.871232
2007-01-08 08:55:58 51°9.174 2°37.717 9.0619 3.629472 32.583912 -2.871232
2007-01-08 08:56:04 51°9.165 2°37.682 9.0655 3.629472 32.58305 -2.871232
2007-01-08 08:56:09 51°9.158 2°37.653 9.0638 3.629472 32.582188 -2.871232
2007-01-08 08:56:14 51°9.151 2°37.624 9.064 3.629472 32.582188 -2.871232
2007-01-08 08:56:18 51°9.146 2°37.602 9.0641 3.629576 32.582359 -2.871232
2007-01-08 08:56:24 51°9.139 2°37.569 9.0645 3.629783 32.584427 -2.871232
2007-01-08 08:56:28 51°9.134 2°37.548 9.0659 3.629887 32.584599 -2.871232
2007-01-08 08:56:34 51°9.126 2°37.517 9.0645 3.62999 32.583908 -2.871232
2007-01-08 08:56:39 51°9.12 2°37.492 9.0629 3.630094 32.583218 -2.871232
2007-01-08 08:56:44 51°9.115 2°37.469 9.0663 3.630094 32.583218 -2.871232
2007-01-08 08:56:48 51°9.111 2°37.451 9.0638 3.630301 32.584424 -2.871232
2007-01-08 08:56:54 51°9.105 2°37.425 9.0662 3.630508 32.585629 -2.871232
2007-01-08 08:56:59 51°9.102 2°37.405 9.0659 3.630715 32.587697 -2.871232
2007-01-08 08:57:04 51°9.1 2°37.386 9.0687 3.630819 32.588731 -2.871232
2007-01-08 08:57:08 51°9.099 2°37.372 9.064 3.631026 32.590799 -2.871232
2007-01-08 08:57:14 51°9.099 2°37.352 9.0645 3.631026 32.590799 -2.871232
2007-01-08 08:57:19 51°9.099 2°37.336 9.0631 3.63113 32.59097 -2.871232
2007-01-08 08:57:24 51°9.1 2°37.322 9.0635 3.631337 32.593038 -2.871232
2007-01-08 08:57:29 51°9.101 2°37.309 9.0631 3.63144 32.59321 -2.871232
2007-01-08 08:57:33 51°9.102 2°37.299 9.0607 3.631544 32.592519 -2.871232
2007-01-08 08:57:39 51°9.103 2°37.284 9.0612 3.631751 32.594587 -2.871232
2007-01-08 08:57:44 51°9.105 2°37.273 9.061 3.631751 32.594587 -2.871232
2007-01-08 08:57:49 51°9.106 2°37.263 9.0592 3.631855 32.596483 -2.871232
2007-01-08 08:57:54 51°9.107 2°37.254 9.06 3.631855 32.599071 -2.871232
2007-01-08 08:57:58 51°9.108 2°37.246 9.0589 3.631958 32.600967 -2.871232
2007-01-08 08:58:04 51°9.11 2°37.236 9.059 3.631958 32.60183 -2.871232
2007-01-08 08:58:09 51°9.112 2°37.228 9.0598 3.632062 32.60459 -2.871232
2007-01-08 08:58:13 51°9.113 2°37.221 9.0589 3.632062 32.60459 -2.871232
2007-01-08 08:58:18 51°9.115 2°37.214 9.059 3.632062 32.60459 -2.871232
2007-01-08 08:58:24 51°9.116 2°37.206 9.0592 3.632166 32.606487 -2.871232
2007-01-08 08:58:29 51°9.118 2°37.201 9.0586 3.632166 32.60735 -2.871232
2007-01-08 08:58:34 51°9.119 2°37.196 9.0584 3.632166 32.608213 -2.871232
2007-01-08 08:58:38 51°9.12 2°37.193 9.0576 3.632269 32.609247 -2.871232
2007-01-08 08:58:44 51°9.12 2°37.19 9.0583 3.632269 32.609247 -2.871232
2007-01-08 08:58:49 51°9.12 2°37.188 9.059 3.632373 32.610281 -2.871232
2007-01-08 08:58:54 51°9.12 2°37.187 9.0588 3.632373 32.610281 -2.871232
2007-01-08 08:58:59 51°9.119 2°37.187 9.058 3.632476 32.612178 -2.871232
2007-01-08 08:59:04 51°9.117 2°37.187 9.0584 3.63258 32.613213 -2.871232
2007-01-08 08:59:08 51°9.117 2°37.187 9.0573 3.63258 32.614076 -2.871232
2007-01-08 08:59:14 51°9.115 2°37.187 9.058 3.63258 32.614076 -2.871232
2007-01-08 08:59:19 51°9.114 2°37.186 9.0585 3.63258 32.614076 -2.871232
2007-01-08 08:59:24 51°9.112 2°37.186 9.0587 3.632684 32.61511 -2.871232
2007-01-08 08:59:29 51°9.112 2°37.185 9.0588 3.632787 32.616144 -2.871232
2007-01-08 08:59:34 51°9.112 2°37.184 9.0593 3.632684 32.61511 -2.871232
2007-01-08 08:59:39 51°9.112 2°37.183 9.0598 3.632684 32.61511 -2.871232
2007-01-08 08:59:44 51°9.113 2°37.182 9.0597 3.632684 32.61511 -2.871232
2007-01-08 08:59:49 51°9.115 2°37.181 9.0602 3.632787 32.617008 -2.871232
2007-01-08 08:59:53 51°9.117 2°37.18 9.062 3.632787 32.617008 -2.871232
2007-01-08 08:59:58 51°9.12 2°37.179 9.0601 3.632891 32.618042 -2.871232
2007-01-08 09:00:04 51°9.124 2°37.178 9.0605 3.632994 32.619076 -2.871232
2007-01-08 09:00:09 51°9.126 2°37.178 9.0608 3.632994 32.618213 -2.871232
2007-01-08 09:00:13 51°9.128 2°37.178 9.0628 3.632994 32.618213 -2.871232
2007-01-08 09:00:18 51°9.132 2°37.178 9.0626 3.633098 32.619247 -2.871232
2007-01-08 09:00:24 51°9.136 2°37.179 9.0609 3.633098 32.618384 -2.871232
2007-01-08 09:00:29 51°9.14 2°37.179 9.0624 3.633202 32.619418 -2.871232
2007-01-08 09:00:34 51°9.144 2°37.18 9.0627 3.633202 32.619418 -2.871232
2007-01-08 09:00:38 51°9.147 2°37.18 9.0634 3.633202 32.619418 -2.871232
2007-01-08 09:00:44 51°9.151 2°37.18 9.0628 3.633202 32.619418 -2.871232
2007-01-08 09:00:49 51°9.154 2°37.18 9.0631 3.633305 32.619589 -2.871232
2007-01-08 09:00:54 51°9.156 2°37.18 9.0638 3.633512 32.620794 -2.871232
2007-01-08 09:00:59 51°9.158 2°37.18 9.0667 3.633512 32.620794 -2.871232
2007-01-08 09:01:04 51°9.159 2°37.179 9.0652 3.633512 32.620794 -2.871232
2007-01-08 09:01:09 51°9.16 2°37.179 9.0663 3.633512 32.620794 -2.871232
2007-01-08 09:01:14 51°9.16 2°37.178 9.0683 3.633512 32.620794 -2.871232
2007-01-08 09:01:18 51°9.16 2°37.178 9.067 3.633616 32.620965 -2.871232
2007-01-08 09:01:24 51°9.16 2°37.176 9.0679 3.633616 32.620965 -2.871232
2007-01-08 09:01:29 51°9.159 2°37.176 9.0708 3.63372 32.621136 -2.871232
2007-01-08 09:01:34 51°9.159 2°37.175 9.0691 3.63372 32.620273 -2.871232
2007-01-08 09:01:39 51°9.159 2°37.175 9.0683 3.633927 32.621478 -2.871232
2007-01-08 09:01:44 51°9.158 2°37.173 9.0685 3.633927 32.621478 -2.871232
2007-01-08 09:01:48 51°9.158 2°37.173 9.0682 3.633927 32.620615 -2.871232
2007-01-08 09:01:53 51°9.158 2°37.172 9.0713 3.63403 32.621649 -2.871232
2007-01-08 09:01:59 51°9.157 2°37.172 9.0687 3.634134 32.62182 -2.871232
2007-01-08 09:02:04 51°9.157 2°37.171 9.073 3.634237 32.621991 -2.871232
2007-01-08 09:02:09 51°9.157 2°37.17 9.0686 3.634134 32.62182 -2.871232
2007-01-08 09:02:13 51°9.156 2°37.17 9.0701 3.634134 32.62182 -2.871232
2007-01-08 09:02:18 51°9.156 2°37.169 9.0687 3.634237 32.622854 -2.871232
2007-01-08 09:02:24 51°9.156 2°37.169 9.0654 3.634237 32.622854 -2.871232
2007-01-08 09:02:29 51°9.155 2°37.168 9.0668 3.634237 32.621991 -2.871232
2007-01-08 09:02:33 51°9.155 2°37.168 9.0633 3.634237 32.621991 -2.871232
2007-01-08 09:02:38 51°9.155 2°37.167 9.0667 3.634237 32.621991 -2.871232
2007-01-08 09:02:44 51°9.154 2°37.167 9.0642 3.634237 32.621991 -2.871232
2007-01-08 09:02:49 51°9.154 2°37.167 9.0627 3.634237 32.621991 -2.871232
2007-01-08 09:02:54 51°9.154 2°37.166 9.0622 3.634134 32.62182 -2.871232
2007-01-08 09:02:58 51°9.153 2°37.166 9.0606 3.63403 32.621649 -2.871232
2007-01-08 09:03:04 51°9.153 2°37.165 9.0616 3.633927 32.621478 -2.871232
2007-01-08 09:03:09 51°9.153 2°37.164 9.0625 3.63403 32.622512 -2.871232
2007-01-08 09:03:14 51°9.152 2°37.164 9.0638 3.63403 32.622512 -2.871232
2007-01-08 09:03:19 51°9.152 2°37.163 9.0615 3.63403 32.623375 -2.871232
2007-01-08 09:03:24 51°9.151 2°37.163 9.0617 3.633927 32.624068 -2.871232
2007-01-08 09:03:29 51°9.151 2°37.162 9.0614 3.63372 32.622863 -2.871232
2007-01-08 09:03:34 51°9.151 2°37.162 9.0602 3.63372 32.623726 -2.871232
2007-01-08 09:03:39 51°9.15 2°37.161 9.0623 3.63372 32.622863 -2.871232
2007-01-08 09:03:44 51°9.15 2°37.161 9.0621 3.63372 32.622863 -2.871232
2007-01-08 09:03:49 51°9.15 2°37.16 9.0622 3.63372 32.622863 -2.871232
2007-01-08 09:03:54 51°9.149 2°37.16 9.0628 3.63372 32.622863 -2.871232
2007-01-08 09:03:59 51°9.149 2°37.159 9.064 3.63372 32.623726 -2.871232
2007-01-08 09:04:04 51°9.148 2°37.158 9.0615 3.633616 32.622692 -2.871232
2007-01-08 09:04:08 51°9.148 2°37.158 9.062 3.633616 32.622692 -2.871232
2007-01-08 09:04:14 51°9.147 2°37.157 9.0626 3.633616 32.622692 -2.871232
2007-01-08 09:04:19 51°9.147 2°37.157 9.062 3.633512 32.621658 -2.871232
2007-01-08 09:04:24 51°9.147 2°37.156 9.0606 3.633616 32.622692 -2.871232
2007-01-08 09:04:29 51°9.146 2°37.156 9.06 3.633616 32.621829 -2.871232
2007-01-08 09:04:33 51°9.146 2°37.156 9.0641 3.633616 32.622692 -2.871232
2007-01-08 09:04:38 51°9.145 2°37.155 9.0611 3.633616 32.622692 -2.871232
2007-01-08 09:04:44 51°9.144 2°37.154 9.0609 3.633616 32.622692 -2.871232
2007-01-08 09:04:49 51°9.144 2°37.154 9.0618 3.633616 32.621829 -2.871232
2007-01-08 09:04:54 51°9.143 2°37.153 9.0613 3.633512 32.621658 -2.871232
2007-01-08 09:04:58 51°9.143 2°37.152 9.061 3.633512 32.621658 -2.871232
2007-01-08 09:05:04 51°9.142 2°37.152 9.0602 3.633512 32.621658 -2.871232
2007-01-08 09:05:09 51°9.142 2°37.151 9.0633 3.633512 32.621658 -2.871232
2007-01-08 09:05:14 51°9.141 2°37.15 9.0618 3.633512 32.621658 -2.871232
2007-01-08 09:05:18 51°9.141 2°37.149 9.0613 3.633512 32.621658 -2.871232
2007-01-08 09:05:24 51°9.14 2°37.149 9.058 3.633512 32.621658 -2.871232
2007-01-08 09:05:29 51°9.14 2°37.148 9.0592 3.633512 32.621658 -2.871232
2007-01-08 09:05:34 51°9.139 2°37.148 9.0612 3.633409 32.621487 -2.871232
2007-01-08 09:05:39 51°9.139 2°37.147 9.0611 3.633409 32.621487 -2.871232
2007-01-08 09:05:44 51°9.138 2°37.146 9.063 3.633409 32.621487 -2.871232
2007-01-08 09:05:49 51°9.138 2°37.146 9.0602 3.633512 32.621658 -2.871232
2007-01-08 09:05:54 51°9.137 2°37.145 9.0613 3.633512 32.622521 -2.871232
2007-01-08 09:05:59 51°9.137 2°37.144 9.0609 3.633409 32.62235 -2.871232
2007-01-08 09:06:04 51°9.136 2°37.144 9.0603 3.633305 32.621316 -2.871232
2007-01-08 09:06:09 51°9.136 2°37.143 9.0595 3.633305 32.620453 -2.871232
2007-01-08 09:06:14 51°9.135 2°37.143 9.0621 3.633305 32.620453 -2.871232
2007-01-08 09:06:19 51°9.135 2°37.142 9.0609 3.633305 32.620453 -2.871232
2007-01-08 09:06:24 51°9.134 2°37.141 9.0592 3.633305 32.620453 -2.871232
2007-01-08 09:06:28 51°9.134 2°37.141 9.0609 3.633305 32.621316 -2.871232
2007-01-08 09:06:33 51°9.133 2°37.14 9.0579 3.633305 32.621316 -2.871232
2007-01-08 09:06:39 51°9.133 2°37.139 9.0609 3.633202 32.621145 -2.871232
2007-01-08 09:06:44 51°9.132 2°37.139 9.0611 3.633202 32.621145 -2.871232
2007-01-08 09:06:49 51°9.132 2°37.139 9.0609 3.633305 32.621316 -2.871232
2007-01-08 09:06:53 51°9.132 2°37.138 9.0605 3.633305 32.621316 -2.871232
2007-01-08 09:06:58 51°9.131 2°37.138 9.0623 3.633202 32.619418 -2.871232
2007-01-08 09:07:04 51°9.13 2°37.137 9.0593 3.633202 32.619418 -2.871232
2007-01-08 09:07:09 51°9.13 2°37.136 9.0583 3.633202 32.619418 -2.871232
2007-01-08 09:07:14 51°9.129 2°37.136 9.0585 3.633202 32.619418 -2.871232
2007-01-08 09:07:18 51°9.129 2°37.135 9.0575 3.633305 32.619589 -2.871232
2007-01-08 09:07:24 51°9.128 2°37.135 9.0588 3.633202 32.619418 -2.871232
2007-01-08 09:07:29 51°9.127 2°37.134 9.0603 3.633305 32.620453 -2.871232
2007-01-08 09:07:34 51°9.127 2°37.133 9.0628 3.633098 32.618384 -2.871232
2007-01-08 09:07:39 51°9.127 2°37.133 9.0611 3.633098 32.620111 -2.871232